• Join FlightAware (Why Join?)
  • Login
  • US Flag 
09:09AM EDT


 

Airport Tracker/Info


-or-


 

Live Flight TrackerFlight Track Log ✈ N717AN ✈ 11-Oct-2013 ✈ KDFW - EGLL / LHR

Flight Track Log - Related Links

Times and Time Zones

All times are in EDT time to prevent confusion due to time zone crossing. See the N717AN flight status page for this flight to view local times or setup timezone preferences in your user account.

Time Position Orientation Groundspeed Altitude Reporting Facility
EDT Latitude Longitude Course Direction KTS MPH feet Rate Location/Type
06:39PM 32.8600 -97.0290 173° South 194 223 2,100  Level FlightAware
06:39PM 32.8410 -97.0210 161° South 212 244 2,400 900 Climbing FlightAware
06:39PM 32.8210 -97.0120 159° South 233 268 2,700 1,500 Climbing FlightAware
06:40PM 32.8010 -97.0030 159° South 240 276 3,400 1,920 Climbing FlightAware
06:40PM 32.7880 -96.9950 153° Southeast 246 283 3,800 1,860 Climbing FlightAware
06:40PM 32.7820 -96.9880 136° Southeast 250 288 4,000 1,860 Climbing FlightAware
06:40PM 32.7760 -96.9770 123° Southeast 258 297 4,300 1,500 Climbing FlightAware
06:40PM 32.7730 -96.9670 110° East 263 303 4,500 2,040 Climbing FlightAware
06:41PM 32.7660 -96.9370 106° East 269 310 5,300 1,800 Climbing FlightAware
06:41PM 32.7650 -96.9170 93° East 279 321 5,600 1,560 Climbing FlightAware
06:42PM 32.7670 -96.8700 87° East 292 336 6,400 2,160 Climbing FlightAware
06:42PM 32.7710 -96.8340 82° East 295 339 7,300 2,040 Climbing FlightAware
06:42PM 32.7750 -96.8220 68° East 302 348 7,400 1,080 Climbing FlightAware
06:42PM 32.7800 -96.8110 62° Northeast 309 356 7,600 1,920 Climbing FlightAware
06:42PM 32.7950 -96.7870 53° Northeast 311 358 8,200 2,040 Climbing FlightAware
06:43PM 32.8060 -96.7710 51° Northeast 314 361 8,600 1,860 Climbing FlightAware
06:43PM 32.8300 -96.7350 52° Northeast 318 366 9,400 1,680 Climbing FlightAware
06:43PM 32.8410 -96.7180 52° Northeast 321 369 9,700 1,380 Climbing FlightAware
06:44PM 32.8720 -96.6680 54° Northeast 339 390 10,500 1,080 Climbing FlightAware
06:44PM 32.9070 -96.6120 53° Northeast 369 425 11,000 960 Climbing FlightAware
06:45PM 32.9460 -96.5500 53° Northeast 398 458 11,700 1,320 Climbing FlightAware
06:46PM 32.9840 -96.4900 53° Northeast 416 479 12,600 1,920 Climbing FlightAware
06:46PM 33.0270 -96.4220 53° Northeast 423 487 14,000 2,280 Climbing FlightAware
06:47PM 33.0690 -96.3530 54° Northeast 430 495 15,400 2,100 Climbing FlightAware
06:47PM 33.0970 -96.2840 64° Northeast 439 505 16,400 1,740 Climbing FlightAware
06:48PM 33.1220 -96.2010 70° East 449 517 17,400 1,800 Climbing FlightAware
06:49PM 33.1470 -96.1140 71° East 456 525 18,600 1,740 Climbing FlightAware
06:49PM 33.1690 -96.0400 70° East 463 533 19,400 1,500 Climbing FlightAware
06:50PM 33.1950 -95.9530 70° East 470 541 20,300 1,560 Climbing FlightAware
06:50PM 33.2220 -95.8600 71° East 479 551 21,300 1,320 Climbing FlightAware
06:51PM 33.2490 -95.7690 70° East 490 564 22,000 1,140 Climbing FlightAware
06:51PM 33.2720 -95.6880 71° East 500 575 22,600 1,200 Climbing FlightAware
06:52PM 33.3000 -95.5920 71° East 509 586 23,400 1,380 Climbing FlightAware
06:53PM 33.3290 -95.4930 71° East 515 593 24,300 1,320 Climbing FlightAware
06:53PM 33.3540 -95.4070 71° East 522 601 24,900 1,200 Climbing FlightAware
06:54PM 33.3890 -95.2830 71° East 529 609 25,900 1,200 Climbing FlightAware
06:54PM 33.4140 -95.1960 71° East 534 615 26,500 1,080 Climbing FlightAware
06:55PM 33.4460 -95.0860 71° East 542 624 27,200 1,080 Climbing FlightAware
06:56PM 33.4720 -94.9930 71° East 549 632 27,800 660 Climbing FlightAware
06:56PM 33.5050 -94.8790 71° East 551 634 28,100 960 Climbing FlightAware
06:57PM 33.5310 -94.7870 71° East 564 649 29,000 960 Climbing FlightAware
06:57PM 33.5590 -94.6880 71° East 563 648 29,200 960 Climbing FlightAware
06:58PM 33.6040 -94.5260 72° East 575 662 30,400 1,320 Climbing FlightAware
06:59PM 33.6310 -94.4280 72° East 576 663 31,000 360 Climbing FlightAware
07:00PM 33.6730 -94.2800 71° East 576 663 31,000  Level FlightAware
07:00PM 33.6990 -94.1870 71° East 576 663 31,000  Level FlightAware
07:01PM 33.7520 -94.0910 56° Northeast 572 658 31,000  Level FlightAware
07:01PM 33.7870 -94.0200 59° Northeast 572 658 31,000  Level FlightAware
07:02PM 33.8470 -93.8990 59° Northeast 572 658 31,000  Level FlightAware
07:02PM 33.8960 -93.8000 59° Northeast 571 657 31,000  Level FlightAware
07:03PM 33.9360 -93.7200 59° Northeast 571 657 31,000  Level FlightAware
07:04PM 33.9770 -93.6370 59° Northeast 571 657 31,000  Level FlightAware
07:04PM 34.0190 -93.5530 59° Northeast 571 657 31,000  Level FlightAware
07:05PM 34.0610 -93.4700 59° Northeast 571 657 31,000  Level FlightAware
07:05PM 34.1020 -93.3860 59° Northeast 571 657 31,000  Level FlightAware
07:06PM 34.1350 -93.3130 61° Northeast 567 652 31,000  Level FlightAware
07:07PM 34.2250 -93.1270 60° Northeast 566 651 31,000  Level FlightAware
07:07PM 34.2770 -93.0200 60° Northeast 566 651 31,000  Level FlightAware
07:08PM 34.3270 -92.9160 60° Northeast 567 652 31,000  Level FlightAware
07:08PM 34.3650 -92.8370 60° Northeast 567 652 31,000  Level FlightAware
07:09PM 34.4160 -92.7310 60° Northeast 564 649 31,000  Level FlightAware
07:10PM 34.4640 -92.6300 60° Northeast 562 647 31,000  Level FlightAware
07:10PM 34.5120 -92.5300 60° Northeast 560 644 31,000  Level FlightAware
07:11PM 34.5480 -92.4540 60° Northeast 560 644 31,000  Level FlightAware
07:12PM 34.6050 -92.3330 60° Northeast 561 646 31,000  Level FlightAware
07:12PM 34.6550 -92.2290 60° Northeast 558 642 31,000  Level FlightAware
07:13PM 34.7030 -92.1500 54° Northeast 555 639 31,000  Level FlightAware
07:13PM 34.7620 -92.0720 47° Northeast 552 635 31,000  Level FlightAware
07:14PM 34.8290 -91.9870 46° Northeast 549 632 31,000  Level FlightAware
07:14PM 34.8960 -91.9020 46° Northeast 549 632 31,000  Level FlightAware
07:15PM 34.9510 -91.8310 47° Northeast 549 632 31,000  Level FlightAware
07:16PM 35.0160 -91.7480 46° Northeast 548 631 31,000  Level FlightAware
07:16PM 35.0770 -91.6690 47° Northeast 547 629 31,000  Level FlightAware
07:17PM 35.1320 -91.5970 47° Northeast 548 631 31,000  Level FlightAware
07:17PM 35.1890 -91.5230 47° Northeast 546 628 31,000  Level FlightAware
07:18PM 35.2500 -91.4440 47° Northeast 547 629 31,000  Level FlightAware
07:18PM 35.3120 -91.3630 47° Northeast 549 632 31,000  Level FlightAware
07:19PM 35.3980 -91.2510 47° Northeast 550 633 31,000  Level FlightAware
07:20PM 35.4570 -91.1750 46° Northeast 550 633 31,000  Level FlightAware
07:20PM 35.5080 -91.1080 47° Northeast 551 634 31,000  Level FlightAware
07:21PM 35.5880 -91.0020 47° Northeast 550 633 31,000  Level FlightAware
07:22PM 35.6400 -90.9330 47° Northeast 549 632 31,000  Level FlightAware
07:22PM 35.6940 -90.8610 47° Northeast 549 632 31,000  Level FlightAware
07:23PM 35.7500 -90.7870 47° Northeast 549 632 31,000  Level FlightAware
07:24PM 35.8460 -90.6600 47° Northeast 549 632 31,000  Level FlightAware
07:25PM 35.9480 -90.5240 47° Northeast 550 633 31,000  Level FlightAware
07:25PM 36.0080 -90.4430 48° Northeast 550 633 31,000  Level FlightAware
07:26PM 36.0630 -90.3710 47° Northeast 550 633 31,000  Level FlightAware
07:26PM 36.1320 -90.2760 48° Northeast 545 627 31,000  Level FlightAware
07:27PM 36.1890 -90.2010 47° Northeast 545 627 31,000  Level FlightAware
07:28PM 36.2690 -90.0920 48° Northeast 544 626 31,000  Level FlightAware
07:28PM 36.3210 -90.0220 47° Northeast 544 626 31,000  Level FlightAware
07:29PM 36.3890 -89.9290 48° Northeast 540 621 31,000  Level FlightAware
07:30PM 36.4600 -89.8320 48° Northeast 540 621 31,000  Level FlightAware
07:30PM 36.5150 -89.7570 48° Northeast 540 621 31,000  Level FlightAware
07:31PM 36.5680 -89.6840 48° Northeast 537 618 31,000  Level FlightAware
07:31PM 36.6320 -89.5960 48° Northeast 535 616 31,000  Level FlightAware
07:32PM 36.6910 -89.5160 47° Northeast 533 613 31,000  Level FlightAware
07:32PM 36.7390 -89.4480 49° Northeast 529 609 31,000  Level FlightAware
07:33PM 36.8050 -89.3570 48° Northeast 527 606 31,000  Level FlightAware
07:34PM 36.8620 -89.2780 48° Northeast 526 605 31,000  Level FlightAware
07:34PM 36.9200 -89.1980 48° Northeast 524 603 31,000  Level FlightAware
07:35PM 36.9720 -89.1260 48° Northeast 521 600 31,000  Level FlightAware
07:35PM 37.0330 -89.0400 48° Northeast 522 601 31,000  Level FlightAware
07:36PM 37.0890 -88.9610 48° Northeast 523 602 31,000  Level FlightAware
07:37PM 37.1460 -88.8810 48° Northeast 523 602 31,000  Level FlightAware
07:37PM 37.2020 -88.8030 48° Northeast 523 602 31,000  Level FlightAware
07:38PM 37.2590 -88.7210 49° Northeast 524 603 31,000  Level FlightAware
07:38PM 37.3160 -88.6420 48° Northeast 525 604 31,000  Level FlightAware
07:39PM 37.3640 -88.5740 48° Northeast 524 603 31,000  Level FlightAware
07:39PM 37.4250 -88.4860 49° Northeast 523 602 31,000  Level FlightAware
07:40PM 37.4860 -88.4000 48° Northeast 522 601 31,000  Level FlightAware
07:41PM 37.5430 -88.3180 49° Northeast 522 601 31,000  Level FlightAware
07:41PM 37.5940 -88.2450 49° Northeast 520 598 31,000  Level FlightAware
07:42PM 37.6500 -88.1640 49° Northeast 519 597 31,000  Level FlightAware
07:42PM 37.7020 -88.0900 48° Northeast 518 596 31,000  Level FlightAware
07:43PM 37.7620 -88.0040 49° Northeast 518 596 31,000  Level FlightAware
07:44PM 37.8180 -87.9230 49° Northeast 517 595 31,000  Level FlightAware
07:44PM 37.8710 -87.8460 49° Northeast 516 594 31,000  Level FlightAware
07:45PM 37.9250 -87.7590 52° Northeast 517 595 31,000  Level FlightAware
07:45PM 37.9660 -87.6630 62° Northeast 519 597 31,000  Level FlightAware
07:46PM 37.9960 -87.5800 65° Northeast 520 598 31,000  Level FlightAware
07:46PM 38.0350 -87.4750 65° Northeast 520 598 31,000  Level FlightAware
07:47PM 38.0690 -87.3830 65° Northeast 518 596 31,000  Level FlightAware
07:48PM 38.1050 -87.2850 65° Northeast 517 595 31,000  Level FlightAware
07:48PM 38.1420 -87.1840 65° Northeast 517 595 31,000  Level FlightAware
07:49PM 38.1740 -87.0980 65° Northeast 519 597 31,000  Level FlightAware
07:49PM 38.2080 -87.0050 65° Northeast 517 595 31,000  Level FlightAware
07:50PM 38.2450 -86.9050 65° Northeast 516 594 31,000  Level FlightAware
07:51PM 38.2820 -86.8010 66° East 514 592 31,000  Level FlightAware
07:51PM 38.3220 -86.6900 65° Northeast 514 592 31,000  Level FlightAware
07:52PM 38.3570 -86.5950 65° Northeast 514 592 31,000  Level FlightAware
07:52PM 38.3930 -86.4940 66° East 514 592 31,000  Level FlightAware
07:53PM 38.4300 -86.3920 65° Northeast 512 589 31,000  Level FlightAware
07:54PM 38.4640 -86.3060 63° Northeast 511 588 31,000  Level FlightAware
07:54PM 38.5040 -86.2130 61° Northeast 510 587 31,000  Level FlightAware
07:55PM 38.5470 -86.1120 61° Northeast 510 587 31,000  Level FlightAware
07:55PM 38.5830 -86.0260 62° Northeast 507 583 31,000  Level FlightAware
07:56PM 38.6220 -85.9310 62° Northeast 506 582 31,000  Level FlightAware
07:57PM 38.6600 -85.8360 63° Northeast 504 580 31,000  Level FlightAware
07:57PM 38.6990 -85.7410 62° Northeast 502 578 31,000  Level FlightAware
07:58PM 38.7330 -85.6580 62° Northeast 502 578 31,000  Level FlightAware
07:58PM 38.7690 -85.5710 62° Northeast 502 578 31,000  Level FlightAware
07:59PM 38.8110 -85.4660 63° Northeast 502 578 31,000  Level FlightAware
07:59PM 38.8430 -85.3880 62° Northeast 501 577 31,000  Level FlightAware
08:00PM 38.8790 -85.2980 63° Northeast 501 577 31,000  Level FlightAware
08:01PM 38.9340 -85.1640 62° Northeast 501 577 31,000  Level FlightAware
08:01PM 38.9350 -85.1590 76° East 501 577 31,000  Level FlightAware
08:02PM 38.9690 -85.0790 61° Northeast 501 577 31,000  Level FlightAware
08:03PM 39.0020 -84.9980 62° Northeast 501 577 31,000  Level FlightAware
08:03PM 39.0810 -84.7910 64° Northeast 499 574 31,000  Level FlightAware
08:04PM 39.1210 -84.6920 62° Northeast 499 574 31,000  Level FlightAware
08:04PM 39.1560 -84.6050 63° Northeast 498 573 31,000  Level FlightAware
08:05PM 39.1880 -84.5240 63° Northeast 498 573 31,000  Level FlightAware
08:06PM 39.2260 -84.4280 63° Northeast 496 571 31,000  Level FlightAware
08:06PM 39.2660 -84.3270 63° Northeast 496 571 31,000  Level FlightAware
08:07PM 39.3050 -84.2260 63° Northeast 495 570 31,000  Level FlightAware
08:07PM 39.3460 -84.1220 63° Northeast 493 567 31,000  Level FlightAware
08:08PM 39.3830 -84.0270 63° Northeast 492 566 31,000  Level FlightAware
08:09PM 39.4150 -83.9440 63° Northeast 490 564 31,000  Level FlightAware
08:09PM 39.4530 -83.8480 63° Northeast 488 562 31,000  Level FlightAware
08:10PM 39.4880 -83.7560 64° Northeast 489 563 31,000  Level FlightAware
08:10PM 39.5250 -83.6610 63° Northeast 489 563 31,000  Level FlightAware
08:11PM 39.5570 -83.5760 64° Northeast 489 563 31,000  Level FlightAware
08:11PM 39.5910 -83.4890 63° Northeast 488 562 31,000  Level FlightAware
08:12PM 39.6290 -83.3890 64° Northeast 489 563 31,000  Level FlightAware
08:13PM 39.6600 -83.3080 64° Northeast 489 563 31,000  Level FlightAware
08:13PM 39.6950 -83.2140 64° Northeast 490 564 31,000  Level FlightAware
08:14PM 39.7360 -83.1080 63° Northeast 491 565 31,000  Level FlightAware
08:14PM 39.7670 -83.0260 64° Northeast 489 563 31,000  Level FlightAware
08:15PM 39.8050 -82.9240 64° Northeast 487 560 31,000  Level FlightAware
08:16PM 39.8350 -82.8430 64° Northeast 487 560 31,000  Level FlightAware
08:16PM 39.8720 -82.7460 64° Northeast 488 562 31,000  Level FlightAware
08:17PM 39.9080 -82.6490 64° Northeast 489 563 31,000  Level FlightAware
08:17PM 39.9430 -82.5530 65° Northeast 488 562 31,000  Level FlightAware
08:18PM 39.9730 -82.4740 64° Northeast 488 562 31,000  Level FlightAware
08:18PM 40.0100 -82.3730 64° Northeast 487 560 31,000  Level FlightAware
08:19PM 40.0450 -82.2770 65° Northeast 488 562 31,000  Level FlightAware
08:20PM 40.0770 -82.1910 64° Northeast 489 563 31,000  Level FlightAware
08:20PM 40.1130 -82.0930 64° Northeast 488 562 31,000  Level FlightAware
08:21PM 40.1470 -81.9980 65° Northeast 489 563 31,000  Level FlightAware
08:21PM 40.1810 -81.9060 64° Northeast 490 564 31,000  Level FlightAware
08:22PM 40.2130 -81.8160 65° Northeast 489 563 31,000  Level FlightAware
08:23PM 40.2480 -81.7210 64° Northeast 491 565 31,000  Level FlightAware
08:23PM 40.2830 -81.6220 65° Northeast 491 565 31,000  Level FlightAware
08:24PM 40.3140 -81.5360 65° Northeast 491 565 31,000  Level FlightAware
08:24PM 40.3490 -81.4390 65° Northeast 491 565 31,000  Level FlightAware
08:25PM 40.3810 -81.3490 65° Northeast 490 564 31,000  Level FlightAware
08:25PM 40.4170 -81.2450 66° East 491 565 31,000  Level FlightAware
08:26PM 40.4470 -81.1600 65° Northeast 492 566 31,000  Level FlightAware
08:27PM 40.4820 -81.0620 65° Northeast 494 568 31,000  Level FlightAware
08:27PM 40.5160 -80.9670 65° Northeast 497 572 31,000  Level FlightAware
08:28PM 40.5460 -80.8800 66° East 499 574 31,000  Level FlightAware
08:28PM 40.5820 -80.7780 65° Northeast 501 577 31,000  Level FlightAware
08:29PM 40.6200 -80.6690 65° Northeast 504 580 31,000  Level FlightAware
08:30PM 40.6500 -80.5810 66° East 506 582 31,000  Level FlightAware
08:30PM 40.6850 -80.4810 65° Northeast 507 583 31,000  Level FlightAware
08:31PM 40.7190 -80.3810 66° East 507 583 31,000  Level FlightAware
08:31PM 40.7520 -80.2860 65° Northeast 508 585 31,000  Level FlightAware
08:32PM 40.7870 -80.1830 66° East 509 586 31,000  Level FlightAware
08:32PM 40.8200 -80.0870 66° East 511 588 31,000  Level FlightAware
08:33PM 40.8530 -79.9880 66° East 513 590 31,000  Level FlightAware
08:34PM 40.8890 -79.8840 65° Northeast 514 592 31,000  Level FlightAware
08:34PM 40.9200 -79.7910 66° East 515 593 31,000  Level FlightAware
08:35PM 40.9550 -79.6860 66° East 516 594 31,000  Level FlightAware
08:35PM 40.9900 -79.5830 66° East 515 593 31,000  Level FlightAware
08:36PM 41.0230 -79.4820 67° East 515 593 31,000  Level FlightAware
08:37PM 41.0550 -79.3860 66° East 515 593 31,000  Level FlightAware
08:37PM 41.0930 -79.2710 66° East 514 592 31,000  Level FlightAware
08:38PM 41.1230 -79.1810 66° East 514 592 31,000  Level FlightAware
08:38PM 41.1570 -79.0770 67° East 513 590 31,000  Level FlightAware
08:39PM 41.1920 -78.9700 66° East 514 592 31,000  Level FlightAware
08:39PM 41.2220 -78.8770 67° East 512 589 31,000  Level FlightAware
08:40PM 41.2560 -78.7720 67° East 512 589 31,000  Level FlightAware
08:41PM 41.2900 -78.6690 66° East 512 589 31,000  Level FlightAware
08:41PM 41.3200 -78.5750 67° East 513 590 31,000  Level FlightAware
08:42PM 41.3530 -78.4740 66° East 513 590 31,000  Level FlightAware
08:42PM 41.3860 -78.3680 67° East 513 590 31,000  Level FlightAware
08:43PM 41.4210 -78.2600 67° East 513 590 31,000  Level FlightAware
08:43PM 41.4460 -78.1820 67° East 513 590 31,000  Level FlightAware
08:44PM 41.4790 -78.0790 67° East 511 588 31,000  Level FlightAware
08:45PM 41.5120 -77.9760 67° East 511 588 31,000  Level FlightAware
08:45PM 41.5460 -77.8840 64° Northeast 510 587 31,000  Level FlightAware
08:46PM 41.5930 -77.7510 65° Northeast 506 582 31,000  Level FlightAware
08:47PM 41.6310 -77.6440 65° Northeast 504 580 31,000  Level FlightAware
08:47PM 41.6740 -77.5240 64° Northeast 503 579 31,000  Level FlightAware
08:48PM 41.7120 -77.4180 64° Northeast 503 579 31,000  Level FlightAware
08:49PM 41.7480 -77.3180 64° Northeast 503 579 31,000  Level FlightAware
08:49PM 41.7790 -77.2290 65° Northeast 503 579 31,000  Level FlightAware
08:50PM 41.8130 -77.1200 67° East 503 579 31,000  Level FlightAware
08:50PM 41.8390 -77.0310 69° East 502 578 31,000  Level FlightAware
08:51PM 41.8670 -76.9270 70° East 503 579 31,000  Level FlightAware
08:51PM 41.8950 -76.8270 69° East 503 579 31,000  Level FlightAware
08:52PM 41.9280 -76.7090 69° East 504 580 31,000  Level FlightAware
08:53PM 41.9550 -76.6120 69° East 504 580 31,000  Level FlightAware
08:53PM 41.9810 -76.5170 70° East 504 580 31,000  Level FlightAware
08:54PM 42.0100 -76.4140 69° East 503 579 31,000  Level FlightAware
08:54PM 42.0440 -76.2900 70° East 502 578 31,000  Level FlightAware
08:55PM 42.0680 -76.2020 70° East 500 575 31,000  Level FlightAware
08:56PM 42.1000 -76.0860 70° East 500 575 31,000  Level FlightAware
08:56PM 42.1280 -75.9840 70° East 500 575 31,000  Level FlightAware
08:57PM 42.1530 -75.8890 70° East 499 574 31,000  Level FlightAware
08:57PM 42.1800 -75.7890 70° East 500 575 31,000  Level FlightAware
08:58PM 42.2090 -75.6800 70° East 500 575 31,000  Level FlightAware
08:58PM 42.2350 -75.5850 70° East 501 577 31,000  Level FlightAware
08:59PM 42.2630 -75.4790 70° East 502 578 31,000  Level FlightAware
09:00PM 42.2910 -75.3730 70° East 502 578 31,000  Level FlightAware
09:00PM 42.3190 -75.2650 71° East 503 579 31,000  Level FlightAware
09:01PM 42.3420 -75.1790 70° East 504 580 31,000  Level FlightAware
09:01PM 42.3720 -75.0640 71° East 505 581 31,000  Level FlightAware
09:02PM 42.3950 -74.9730 71° East 505 581 31,000  Level FlightAware
09:03PM 42.4270 -74.8520 70° East 506 582 31,000  Level FlightAware
09:03PM 42.4520 -74.7550 71° East 506 582 31,000  Level FlightAware
09:04PM 42.4790 -74.6490 71° East 505 581 31,000  Level FlightAware
09:04PM 42.5050 -74.5450 71° East 505 581 31,000  Level FlightAware
09:05PM 42.5320 -74.4400 71° East 506 582 31,000  Level FlightAware
09:05PM 42.5600 -74.3320 71° East 507 583 31,000  Level FlightAware
09:06PM 42.5850 -74.2300 72° East 508 585 31,000  Level FlightAware
09:07PM 42.6100 -74.1300 71° East 508 585 31,000  Level FlightAware
09:07PM 42.6390 -74.0170 71° East 508 585 31,000  Level FlightAware
09:08PM 42.6730 -73.8800 71° East 509 586 31,000  Level FlightAware
09:09PM 42.6970 -73.7800 72° East 510 587 31,000  Level FlightAware
09:09PM 42.7230 -73.6760 71° East 512 589 31,000  Level FlightAware
09:10PM 42.7480 -73.5720 72° East 511 588 31,000  Level FlightAware
09:10PM 42.7760 -73.4590 71° East 514 592 31,000  Level FlightAware
09:11PM 42.8010 -73.3580 71° East 517 595 31,000  Level FlightAware
09:11PM 42.8210 -73.2790 71° East 515 593 31,000  Level FlightAware
09:12PM 42.8610 -73.1420 68° East 517 595 31,000  Level FlightAware
09:13PM 42.8940 -73.0300 68° East 515 593 31,000  Level FlightAware
09:13PM 42.9220 -72.9340 68° East 517 595 31,000  Level FlightAware
09:14PM 42.9540 -72.8220 69° East 516 594 31,000  Level FlightAware
09:14PM 42.9840 -72.7130 69° East 516 594 31,000  Level FlightAware
09:15PM 43.0006 -72.6540 69° East 518 596 31,000  Level FlightAware ADS-B (KSNC)
09:16PM 43.0430 -72.5030 69° East 519 597 31,000  Level FlightAware
09:16PM 43.0663 -72.4176 70° East 523 602 31,000  Level FlightAware ADS-B (KSNC)
09:17PM 43.0970 -72.3065 69° East 524 603 31,000  Level FlightAware ADS-B (KSNC)
09:17PM 43.1326 -72.1779 69° East 526 605 31,000  Level FlightAware ADS-B (KSNC)
09:18PM 43.1596 -72.0796 69° East 528 608 31,000  Level FlightAware ADS-B (KSNC)
09:18PM 43.1948 -71.9506 69° East 530 610 31,000  Level FlightAware ADS-B (KSNC)
09:19PM 43.2251 -71.8393 69° East 532 612 31,000  Level FlightAware ADS-B (KBOS)
09:20PM 43.2530 -71.7340 70° East 535 616 31,000  Level FlightAware
09:20PM 43.2717 -71.6672 69° East 538 619 31,000  Level FlightAware ADS-B (KBOS)
09:21PM 43.2969 -71.5731 70° East 540 621 31,000  Level FlightAware ADS-B (KBOS)
09:21PM 43.3255 -71.4661 70° East 543 625 31,000  Level FlightAware ADS-B (KBOS)
09:22PM 43.3604 -71.3357 70° East 545 627 31,000  Level FlightAware ADS-B (KBOS)
09:22PM 43.3895 -71.2262 70° East 547 629 31,000  Level FlightAware ADS-B (KBOS)
09:23PM 43.4374 -71.0442 70° East 550 633 31,000 180 Level FlightAware ADS-B (KBOS)
09:24PM 43.4650 -70.9390 70° East 552 635 31,300 720 Climbing FlightAware
09:24PM 43.4717 -70.9138 70° East 551 634 31,500 900 Climbing FlightAware ADS-B (KBOS)
09:24PM 43.5042 -70.7890 70° East 551 634 32,000 360 Climbing FlightAware ADS-B (KBOS)
09:25PM 43.5401 -70.6502 70° East 554 638 32,000  Level FlightAware ADS-B (KBOS)
09:26PM 43.5663 -70.5490 70° East 555 639 32,000  Level FlightAware ADS-B (KBOS)
09:26PM 43.5944 -70.4402 70° East 556 640 32,000  Level FlightAware ADS-B (KBOS)
09:27PM 43.6238 -70.3258 70° East 557 641 32,000  Level FlightAware ADS-B (KBOS)
09:27PM 43.6458 -70.2403 70° East 557 641 32,000  Level FlightAware ADS-B (KBOS)
09:28PM 43.7040 -70.0110 71° East 556 640 32,000  Level FlightAware
09:29PM 43.7310 -69.9040 71° East 557 641 32,000  Level FlightAware
09:30PM 43.7620 -69.7820 71° East 557 641 32,000  Level FlightAware
09:30PM 43.7940 -69.6510 71° East 558 642 32,000  Level FlightAware
09:31PM 43.8400 -69.4650 71° East 559 643 32,000  Level FlightAware
09:32PM 43.8740 -69.3290 71° East 559 643 32,000  Level FlightAware
09:32PM 43.9050 -69.2030 71° East 560 644 32,000  Level FlightAware
09:33PM 43.9141 -69.1646 72° East 561 646 32,000 60 Level FlightAware ADS-B (KBOS)
09:34PM 43.9654 -68.9531 71° East 563 648 32,100 480 Climbing FlightAware ADS-B (KBOS)
09:34PM 43.9880 -68.8595 71° East 562 647 32,800 780 Climbing FlightAware ADS-B (KBOS)
09:35PM 44.0213 -68.7204 72° East 560 644 33,000 120 Climbing FlightAware ADS-B (KBOS)
09:35PM 44.0540 -68.5850 71° East 561 646 33,000  Level FlightAware
09:36PM 44.0759 -68.4904 72° East 562 647 33,000  Level FlightAware ADS-B (KBOS)
09:37PM 44.1120 -68.3360 72° East 562 647 33,000  Level FlightAware
09:37PM 44.1420 -68.2090 72° East 563 648 33,000  Level FlightAware
09:38PM 44.1720 -68.0820 72° East 563 648 33,000  Level FlightAware
09:38PM 44.2010 -67.9550 72° East 564 649 33,000  Level FlightAware
09:39PM 44.2270 -67.8430 72° East 564 649 33,000  Level FlightAware
09:40PM 44.2550 -67.7190 72° East 565 650 33,000  Level FlightAware
09:40PM 44.2800 -67.6090 72° East 565 650 33,000  Level FlightAware
09:41PM 44.3090 -67.4820 72° East 564 649 33,000  Level FlightAware
09:41PM 44.3380 -67.3520 73° East 564 649 33,000  Level FlightAware
09:42PM 44.3630 -67.2400 73° East 565 650 33,000  Level FlightAware
09:42PM 44.3910 -67.1180 72° East 565 650 33,000  Level FlightAware
09:43PM 44.4190 -66.9890 73° East 564 649 33,000  Level FlightAware
09:44PM 44.4470 -66.8650 72° East 565 650 33,000  Level FlightAware
09:44PM 44.4720 -66.7540 72° East 566 651 33,000  Level FlightAware
09:45PM 44.4970 -66.6440 72° East 567 652 33,000  Level FlightAware
09:45PM 44.5290 -66.5030 72° East 565 650 33,000  Level FlightAware
09:46PM 44.5530 -66.3940 73° East 565 650 33,000  Level FlightAware
09:47PM 44.5810 -66.2650 73° East 564 649 33,000  Level FlightAware
09:47PM 44.6080 -66.1400 73° East 563 648 33,000  Level FlightAware
09:48PM 44.6350 -66.0170 73° East 564 649 33,000  Level FlightAware
09:48PM 44.6630 -65.8890 73° East 564 649 33,000  Level FlightAware
09:49PM 44.6900 -65.7620 73° East 563 648 33,000  Level FlightAware
09:49PM 44.7140 -65.6520 73° East 563 648 33,000  Level FlightAware
09:50PM 44.7400 -65.5280 74° East 564 649 33,000  Level FlightAware
09:51PM 44.7680 -65.3980 73° East 564 649 33,000  Level FlightAware
09:51PM 44.7900 -65.2920 74° East 563 648 33,000  Level FlightAware
09:52PM 44.8150 -65.1740 73° East 565 650 33,000  Level FlightAware
09:52PM 44.8440 -65.0340 74° East 565 650 33,000  Level FlightAware
09:53PM 44.8710 -64.9050 74° East 566 651 33,000  Level FlightAware
09:54PM 44.8940 -64.7920 74° East 567 652 33,000  Level FlightAware
09:54PM 44.9210 -64.6590 74° East 568 654 33,000  Level FlightAware
09:55PM 44.9470 -64.5290 74° East 568 654 33,000  Level FlightAware
09:55PM 44.9700 -64.4150 74° East 568 654 33,000  Level FlightAware
09:56PM 44.9960 -64.2860 74° East 568 654 33,000  Level FlightAware
09:56PM 45.0200 -64.1670 74° East 567 652 33,000  Level FlightAware
09:57PM 45.0460 -64.0360 74° East 567 652 33,000  Level FlightAware
09:58PM 45.0700 -63.9110 75° East 566 651 33,000  Level FlightAware
09:58PM 45.0900 -63.8100 74° East 565 650 33,000  Level FlightAware
09:59PM 45.1140 -63.6860 75° East 566 651 33,000  Level FlightAware
09:59PM 45.1410 -63.5430 75° East 567 652 33,000  Level FlightAware
10:00PM 45.1650 -63.4200 74° East 567 652 33,000  Level FlightAware
10:01PM 45.1890 -63.2940 75° East 566 651 33,000  Level FlightAware
10:01PM 45.2090 -63.1890 75° East 566 651 33,000  Level FlightAware
10:02PM 45.1610 -63.4400 255° West 567 652 33,000  Level FlightAware
10:02PM 45.1810 -63.3350 75° East 566 651 33,000  Level FlightAware
10:03PM 45.2030 -63.2220 75° East 566 651 33,000  Level FlightAware
10:04PM 45.2240 -63.1100 75° East 566 651 33,000  Level FlightAware
10:04PM 45.2520 -62.9620 75° East 567 652 33,000  Level FlightAware
10:05PM 45.2860 -62.7770 75° East 567 652 33,000  Level FlightAware
10:06PM 45.3190 -62.5940 76° East 568 654 33,000  Level FlightAware
10:06PM 45.3480 -62.4320 76° East 568 654 33,000  Level FlightAware
10:07PM 45.3840 -62.2360 75° East 568 654 33,000  Level FlightAware
10:08PM 45.4030 -62.1250 76° East 568 654 33,000  Level FlightAware
10:09PM 45.4230 -62.0140 76° East 568 654 33,000  Level FlightAware
10:09PM 45.4420 -61.9030 76° East 568 654 33,000  Level FlightAware
10:10PM 45.4610 -61.7910 76° East 568 654 33,000  Level FlightAware
10:10PM 45.5680 -61.1790 76° East 569 655 33,000  Level FlightAware
10:11PM 45.5900 -61.0450 77° East 569 655 33,000  Level FlightAware
10:12PM 45.6120 -60.9160 76° East 569 655 33,000  Level FlightAware
10:12PM 45.6330 -60.7860 77° East 570 656 33,000  Level FlightAware
10:13PM 45.6540 -60.6610 76° East 570 656 33,000  Level FlightAware
10:13PM 45.6760 -60.5270 77° East 570 656 33,000  Level FlightAware
10:14PM 45.6970 -60.3930 77° East 571 657 33,000  Level FlightAware
10:14PM 45.7180 -60.2640 77° East 572 658 33,000  Level FlightAware
10:15PM 45.7370 -60.1440 77° East 574 661 33,000  Level FlightAware
10:16PM 45.7560 -60.0240 77° East 574 661 33,000  Level FlightAware
10:16PM 45.7790 -59.8750 77° East 574 661 33,000  Level FlightAware
10:17PM 45.7980 -59.7550 77° East 575 662 33,000  Level FlightAware
10:17PM 45.8190 -59.6230 77° East 575 662 33,000  Level FlightAware
10:18PM 45.8390 -59.4880 78° East 577 664 33,000  Level FlightAware
10:19PM 45.8600 -59.3530 77° East 578 665 33,000  Level FlightAware
10:19PM 45.8770 -59.2360 78° East 579 666 33,000  Level FlightAware
10:20PM 45.8980 -59.0990 78° East 579 666 33,000  Level FlightAware
10:20PM 45.9170 -58.9660 78° East 581 669 33,000  Level FlightAware
10:21PM 45.9350 -58.8450 78° East 582 670 33,000  Level FlightAware
10:21PM 45.9550 -58.7070 78° East 584 672 33,000  Level FlightAware
10:22PM 45.9740 -58.5780 78° East 584 672 33,000  Level FlightAware
10:23PM 45.9940 -58.4340 79° East 585 673 33,000  Level FlightAware
10:23PM 46.0100 -58.3270 78° East 587 676 33,000  Level FlightAware
10:24PM 46.0330 -58.1620 79° East 588 677 33,000  Level FlightAware
10:25PM 46.0510 -58.0420 78° East 588 677 33,000  Level FlightAware
10:25PM 46.0670 -57.9310 78° East 588 677 33,000  Level FlightAware
10:26PM 46.0850 -57.8100 78° East 588 677 33,000  Level FlightAware
10:26PM 46.1070 -57.6170 81° East 577 664 33,000  Level FlightAware
10:27PM 46.1240 -57.4900 79° East 574 661 33,000  Level FlightAware
10:27PM 46.1430 -57.3500 79° East 569 655 33,000  Level FlightAware
10:28PM 46.1600 -57.2240 79° East 569 655 33,000  Level FlightAware
10:29PM 46.1780 -57.0890 79° East 566 651 33,000  Level FlightAware
10:29PM 46.1960 -56.9650 78° East 561 646 33,000  Level FlightAware
10:30PM 46.2160 -56.8350 77° East 561 646 33,000  Level FlightAware
10:30PM 46.2360 -56.7000 78° East 562 647 33,000  Level FlightAware
10:31PM 46.2560 -56.5670 78° East 560 644 33,000  Level FlightAware
10:32PM 46.2720 -56.4480 79° East 562 647 33,000  Level FlightAware
10:32PM 46.2910 -56.3160 78° East 562 647 33,000  Level FlightAware
10:33PM 46.3090 -56.1870 79° East 563 648 33,000  Level FlightAware
10:33PM 46.3260 -56.0670 78° East 563 648 33,000  Level FlightAware
10:34PM 46.3440 -55.9340 79° East 562 647 33,000  Level FlightAware
10:34PM 46.3630 -55.7980 79° East 564 649 33,000  Level FlightAware
10:35PM 46.3790 -55.6770 79° East 565 650 33,000  Level FlightAware
10:36PM 46.3980 -55.5400 79° East 566 651 33,000  Level FlightAware
10:36PM 46.4120 -55.4360 79° East 566 651 33,000  Level FlightAware
10:37PM 46.4280 -55.3150 79° East 568 654 33,000  Level FlightAware
10:37PM 46.4470 -55.1710 79° East 568 654 33,000  Level FlightAware
10:38PM 46.4650 -55.0330 79° East 570 656 33,000  Level FlightAware
10:38PM 46.4810 -54.9090 79° East 573 659 33,000  Level FlightAware
10:39PM 46.4980 -54.7780 79° East 574 661 33,000  Level FlightAware
10:40PM 46.5150 -54.6420 80° East 576 663 33,000  Level FlightAware
10:40PM 46.5310 -54.5160 79° East 576 663 33,000  Level FlightAware
10:41PM 46.5480 -54.3750 80° East 578 665 33,000  Level FlightAware
10:41PM 46.5630 -54.2510 80° East 578 665 33,000  Level FlightAware
10:42PM 46.5810 -54.1090 80° East 579 666 33,000  Level FlightAware
10:43PM 46.5970 -53.9720 80° East 581 669 33,000  Level FlightAware
10:43PM 46.6130 -53.8370 80° East 582 670 33,000  Level FlightAware
10:44PM 46.6280 -53.7110 80° East 583 671 33,000  Level FlightAware
10:44PM 46.6430 -53.5780 81° East 585 673 33,000  Level FlightAware
10:45PM 46.6600 -53.4330 80° East 589 678 33,000  Level FlightAware
10:45PM 46.6770 -53.2900 80° East 587 676 33,000  Level FlightAware
10:46PM 46.6900 -53.1730 81° East 587 676 33,000  Level FlightAware
10:47PM 46.7060 -53.0270 81° East 588 677 33,000  Level FlightAware
10:47PM 46.7210 -52.8920 81° East 588 677 33,000  Level FlightAware
10:48PM 46.7350 -52.7660 81° East 588 677 33,000  Level FlightAware
10:48PM 46.7500 -52.6210 81° East 590 679 33,000  Level FlightAware
10:49PM 46.7650 -52.4810 81° East 589 678 33,000  Level FlightAware
10:50PM 46.7800 -52.3370 81° East 591 680 33,000  Level FlightAware
10:50PM 46.7940 -52.2080 81° East 592 681 33,000  Level FlightAware
10:51PM 46.8080 -52.0670 82° East 593 682 33,000  Level FlightAware
10:51PM 46.8220 -51.9290 82° East 594 684 33,000  Level FlightAware
10:52PM 46.8350 -51.7990 82° East 594 684 33,000  Level FlightAware
10:52PM 46.8500 -51.6460 82° East 597 687 33,000  Level FlightAware
10:53PM 46.8630 -51.5170 82° East 597 687 33,000  Level FlightAware
10:54PM 46.8770 -51.3750 82° East 599 689 33,000  Level FlightAware
10:54PM 46.8910 -51.2290 82° East 600 690 33,000  Level FlightAware
10:55PM 46.9040 -51.0900 82° East 601 692 33,000  Level FlightAware
10:55PM 46.9160 -50.9600 82° East 602 693 33,000  Level FlightAware
10:56PM 46.9300 -50.8080 82° East 602 693 33,000  Level FlightAware
10:57PM 46.9430 -50.6650 82° East 603 694 33,000  Level FlightAware
10:57PM 46.9550 -50.5380 82° East 603 694 33,000  Level FlightAware
10:58PM 46.9670 -50.4140 82° East 603 694 33,000  Level FlightAware
10:58PM 46.9830 -50.2060 83° East 604 695 33,000  Level FlightAware
10:59PM 46.9960 -50.0670 82° East 602 693 33,000  Level FlightAware
11:00PM 47.0170 -49.9390 76° East 597 687 33,000  Level FlightAware
11:00PM 47.0500 -49.7990 71° East 595 685 33,000  Level FlightAware
11:01PM 47.0830 -49.6670 70° East 597 687 33,000  Level FlightAware
11:01PM 47.1140 -49.5440 70° East 597 687 33,000  Level FlightAware
11:02PM 47.1460 -49.4150 70° East 597 687 33,000  Level FlightAware
11:02PM 47.1760 -49.2950 70° East 597 687 33,000  Level FlightAware
11:03PM 47.2050 -49.1780 70° East 597 687 33,000  Level FlightAware
11:04PM 47.2340 -49.0610 70° East 597 687 33,000  Level FlightAware
11:04PM 47.2630 -48.9440 70° East 597 687 33,000  Level FlightAware
11:05PM 47.2910 -48.8270 71° East 597 687 33,000  Level FlightAware
11:06PM 47.3210 -48.7060 70° East 597 687 33,000  Level FlightAware
11:06PM 47.3500 -48.5890 70° East 597 687 33,000  Level FlightAware
11:07PM 47.3790 -48.4720 70° East 597 687 33,000  Level FlightAware
11:07PM 47.4080 -48.3550 70° East 597 687 33,000  Level FlightAware
11:08PM 47.4370 -48.2370 70° East 597 687 33,000  Level FlightAware
11:09PM 47.4660 -48.1200 70° East 597 687 33,000  Level FlightAware
11:09PM 47.4940 -48.0020 71° East 597 687 33,000  Level FlightAware
11:10PM 47.5230 -47.8850 70° East 597 687 33,000  Level FlightAware
11:10PM 47.5520 -47.7670 70° East 597 687 33,000  Level FlightAware
11:11PM 47.5870 -47.6260 70° East 597 687 33,000  Level FlightAware
11:12PM 47.6160 -47.5090 70° East 597 687 33,000  Level FlightAware
11:12PM 47.7000 -46.9333 70° East 600 690 33,000  Level Gander Center
11:13PM 47.7500 -46.7167 71° East 600 690 33,000  Level Gander Center
11:16PM 47.8439 -46.3119 71° East  Level FlightAware Approximate
11:23PM 48.1484 -44.8909 72° East  Level FlightAware Approximate
11:24PM 48.1875 -44.6936 73° East  Level FlightAware Approximate
11:25PM 48.2261 -44.4959 74° East  Level FlightAware Approximate
11:26PM 48.2644 -44.2979 74° East  Level FlightAware Approximate
11:27PM 48.3024 -44.0997 74° East  Level FlightAware Approximate
11:28PM 48.3400 -43.9011 74° East  Level FlightAware Approximate
11:29PM 48.3773 -43.7023 74° East  Level FlightAware Approximate
11:30PM 48.4142 -43.5032 74° East  Level FlightAware Approximate
11:31PM 48.4508 -43.3037 74° East  Level FlightAware Approximate
11:32PM 48.4870 -43.1040 75° East  Level FlightAware Approximate
11:33PM 48.5229 -42.9041 75° East  Level FlightAware Approximate
11:34PM 48.5585 -42.7038 75° East  Level FlightAware Approximate
11:35PM 48.5937 -42.5032 75° East  Level FlightAware Approximate
11:36PM 48.6285 -42.3024 75° East  Level FlightAware Approximate
11:37PM 48.6630 -42.1013 75° East  Level FlightAware Approximate
11:38PM 48.6972 -41.8999 76° East  Level FlightAware Approximate
11:39PM 48.7310 -41.6983 76° East  Level FlightAware Approximate
11:40PM 48.7644 -41.4964 76° East  Level FlightAware Approximate
11:41PM 48.7975 -41.2942 76° East  Level FlightAware Approximate
11:42PM 48.8303 -41.0917 76° East  Level FlightAware Approximate
11:43PM 48.8627 -40.8890 76° East  Level FlightAware Approximate
11:44PM 48.8947 -40.6856 76° East  Level FlightAware Approximate
11:45PM 48.9265 -40.4820 77° East  Level FlightAware Approximate
11:46PM 48.9579 -40.2781 77° East  Level FlightAware Approximate
11:47PM 48.9889 -40.0740 77° East  Level FlightAware Approximate
11:48PM 49.0190 -39.8694 77° East  Level FlightAware Approximate
11:49PM 49.0484 -39.6645 78° East  Level FlightAware Approximate
11:50PM 49.0775 -39.4593 78° East  Level FlightAware Approximate
11:51PM 49.1062 -39.2539 78° East  Level FlightAware Approximate
11:52PM 49.1346 -39.0483 78° East  Level FlightAware Approximate
11:53PM 49.1626 -38.8424 78° East  Level FlightAware Approximate
11:54PM 49.1902 -38.6363 78° East  Level FlightAware Approximate
11:55PM 49.2174 -38.4299 78° East  Level FlightAware Approximate
11:56PM 49.2443 -38.2234 79° East  Level FlightAware Approximate
11:57PM 49.2708 -38.0166 79° East  Level FlightAware Approximate
11:58PM 49.2970 -37.8096 79° East  Level FlightAware Approximate
11:59PM 49.3228 -37.6023 79° East  Level FlightAware Approximate
12:00AM 49.3482 -37.3949 79° East  Level FlightAware Approximate
12:01AM 49.3732 -37.1872 79° East  Level FlightAware Approximate
12:02AM 49.3979 -36.9794 80° East  Level FlightAware Approximate
12:03AM 49.4222 -36.7713 80° East  Level FlightAware Approximate
12:04AM 49.4461 -36.5630 80° East  Level FlightAware Approximate
12:05AM 49.4696 -36.3545 80° East  Level FlightAware Approximate
12:06AM 49.4928 -36.1458 80° East  Level FlightAware Approximate
12:07AM 49.5156 -35.9370 80° East  Level FlightAware Approximate
12:08AM 49.5380 -35.7279 81° East  Level FlightAware Approximate
12:09AM 49.5601 -35.5186 81° East  Level FlightAware Approximate
12:10AM 49.5817 -35.3092 81° East  Level FlightAware Approximate
12:11AM 49.6030 -35.0995 81° East  Level FlightAware Approximate
12:12AM 49.6239 -34.8897 81° East  Level FlightAware Approximate
12:13AM 49.6444 -34.6797 81° East  Level FlightAware Approximate
12:14AM 49.6646 -34.4696 81° East  Level FlightAware Approximate
12:15AM 49.6843 -34.2592 82° East  Level FlightAware Approximate
12:16AM 49.7037 -34.0487 82° East  Level FlightAware Approximate
12:17AM 49.7227 -33.8380 82° East  Level FlightAware Approximate
12:18AM 49.7413 -33.6272 82° East  Level FlightAware Approximate
12:19AM 49.7595 -33.4162 82° East  Level FlightAware Approximate
12:20AM 49.7774 -33.2050 82° East  Level FlightAware Approximate
12:21AM 49.7949 -32.9937 83° East  Level FlightAware Approximate
12:22AM 49.8120 -32.7823 83° East  Level FlightAware Approximate
12:23AM 49.8287 -32.5707 83° East  Level FlightAware Approximate
12:24AM 49.8450 -32.3589 83° East  Level FlightAware Approximate
12:25AM 49.8609 -32.1470 83° East  Level FlightAware Approximate
12:26AM 49.8764 -31.9350 83° East  Level FlightAware Approximate
12:27AM 49.8916 -31.7228 84° East  Level FlightAware Approximate
12:28AM 49.9063 -31.5105 84° East  Level FlightAware Approximate
12:29AM 49.9207 -31.2981 84° East  Level FlightAware Approximate
12:30AM 49.9347 -31.0855 84° East  Level FlightAware Approximate
12:31AM 49.9483 -30.8729 84° East  Level FlightAware Approximate
12:32AM 49.9615 -30.6601 84° East  Level FlightAware Approximate
12:33AM 49.9743 -30.4472 85° East  Level FlightAware Approximate
12:34AM 49.9868 -30.2341 85° East  Level FlightAware Approximate
12:35AM 49.9988 -30.0210 85° East  Level FlightAware Approximate
12:36AM 50.0442 -29.8197 69° East  Level FlightAware Approximate
12:37AM 50.0929 -29.6193 69° East  Level FlightAware Approximate
12:38AM 50.1413 -29.4185 69° East  Level FlightAware Approximate
12:39AM 50.1893 -29.2173 69° East  Level FlightAware Approximate
12:40AM 50.2370 -29.0157 70° East  Level FlightAware Approximate
12:41AM 50.2843 -28.8137 70° East  Level FlightAware Approximate
12:42AM 50.3313 -28.6112 70° East  Level FlightAware Approximate
12:43AM 50.3779 -28.4084 70° East  Level FlightAware Approximate
12:44AM 50.4242 -28.2052 70° East  Level FlightAware Approximate
12:45AM 50.4701 -28.0016 70° East  Level FlightAware Approximate
12:46AM 50.5156 -27.7976 71° East  Level FlightAware Approximate
12:47AM 50.5608 -27.5932 71° East  Level FlightAware Approximate
12:48AM 50.6066 -27.3889 70° East  Level FlightAware Approximate
12:49AM 50.6522 -27.1843 71° East  Level FlightAware Approximate
12:50AM 50.6974 -26.9793 71° East  Level FlightAware Approximate
12:51AM 50.7422 -26.7739 71° East  Level FlightAware Approximate
12:52AM 50.7867 -26.5682 71° East  Level FlightAware Approximate
12:53AM 50.8308 -26.3620 71° East  Level FlightAware Approximate
12:54AM 50.8757 -26.1561 71° East  Level FlightAware Approximate
12:55AM 50.9204 -25.9498 71° East  Level FlightAware Approximate
12:56AM 50.9647 -25.7432 71° East  Level FlightAware Approximate
12:57AM 51.0087 -25.5361 71° East  Level FlightAware Approximate
12:58AM 51.0522 -25.3287 71° East  Level FlightAware Approximate
12:59AM 51.0955 -25.1209 72° East  Level FlightAware Approximate
01:00AM 51.1383 -24.9127 72° East  Level FlightAware Approximate
01:01AM 51.1808 -24.7041 72° East  Level FlightAware Approximate
01:02AM 51.2229 -24.4951 72° East  Level FlightAware Approximate
01:03AM 51.2646 -24.2857 72° East  Level FlightAware Approximate
01:04AM 51.3060 -24.0760 72° East  Level FlightAware Approximate
01:05AM 51.3469 -23.8659 73° East  Level FlightAware Approximate
01:06AM 51.3865 -23.6549 73° East  Level FlightAware Approximate
01:07AM 51.4255 -23.4434 73° East  Level FlightAware Approximate
01:08AM 51.4642 -23.2316 74° East  Level FlightAware Approximate
01:09AM 51.5025 -23.0195 74° East  Level FlightAware Approximate
01:10AM 51.5404 -22.8070 74° East  Level FlightAware Approximate
01:11AM 51.5779 -22.5942 74° East  Level FlightAware Approximate
01:12AM 51.6151 -22.3810 74° East  Level FlightAware Approximate
01:13AM 51.6519 -22.1675 74° East  Level FlightAware Approximate
01:14AM 51.6882 -21.9536 75° East  Level FlightAware Approximate
01:15AM 51.7242 -21.7393 75° East  Level FlightAware Approximate
01:16AM 51.7598 -21.5248 75° East  Level FlightAware Approximate
01:17AM 51.7950 -21.3099 75° East  Level FlightAware Approximate
01:18AM 51.8298 -21.0946 75° East  Level FlightAware Approximate
01:19AM 51.8642 -20.8791 75° East  Level FlightAware Approximate
01:20AM 51.8983 -20.6632 76° East  Level FlightAware Approximate
01:21AM 51.9319 -20.4470 76° East  Level FlightAware Approximate
01:22AM 51.9651 -20.2304 76° East  Level FlightAware Approximate
01:23AM 51.9978 -20.0144 76° East  Level FlightAware Approximate
01:24AM 52.0075 -19.7926 87° East  Level FlightAware Approximate
01:25AM 52.0152 -19.5704 87° East  Level FlightAware Approximate
01:26AM 52.0225 -19.3481 87° East  Level FlightAware Approximate
01:27AM 52.0294 -19.1257 87° East  Level FlightAware Approximate
01:28AM 52.0358 -18.9032 87° East  Level FlightAware Approximate
01:29AM 52.0418 -18.6807 87° East  Level FlightAware Approximate
01:30AM 52.0474 -18.4581 88° East  Level FlightAware Approximate
01:31AM 52.0526 -18.2355 88° East  Level FlightAware Approximate
01:32AM 52.0573 -18.0128 88° East  Level FlightAware Approximate
01:33AM 52.0616 -17.7901 88° East  Level FlightAware Approximate
01:34AM 52.0656 -17.5673 88° East  Level FlightAware Approximate
01:35AM 52.0692 -17.3445 88° East  Level FlightAware Approximate
01:36AM 52.0726 -17.1217 89° East  Level FlightAware Approximate
01:37AM 52.0755 -16.8988 89° East  Level FlightAware Approximate
01:38AM 52.0780 -16.6759 89° East  Level FlightAware Approximate
01:39AM 52.0801 -16.4530 89° East  Level FlightAware Approximate
01:40AM 52.0817 -16.2301 89° East  Level FlightAware Approximate
01:41AM 52.0830 -16.0071 89° East  Level FlightAware Approximate
01:42AM 52.0838 -15.7842 90° East  Level FlightAware Approximate
01:43AM 52.0842 -15.5612 90° East  Level FlightAware Approximate
01:44AM 52.0842 -15.3378 90° East  Level FlightAware Approximate
01:45AM 52.0837 -15.1144 90° East  Level FlightAware Approximate
01:46AM 52.0831 -14.8910 90° East  Level FlightAware Approximate
01:47AM 52.0823 -14.6676 90° East  Level FlightAware Approximate
01:48AM 52.0811 -14.4442 90° East  Level FlightAware Approximate
01:49AM 52.0795 -14.2209 91° East  Level FlightAware Approximate
01:50AM 52.0774 -13.9975 91° East  Level FlightAware Approximate
01:51AM 52.0749 -13.7742 91° East  Level FlightAware Approximate
01:52AM 52.0720 -13.5509 91° East  Level FlightAware Approximate
01:53AM 52.0687 -13.3277 91° East  Level FlightAware Approximate
01:54AM 52.0649 -13.1044 91° East  Level FlightAware Approximate
01:55AM 52.0608 -12.8813 92° East  Level FlightAware Approximate
01:56AM 52.0562 -12.6581 92° East  Level FlightAware Approximate
01:57AM 52.0512 -12.4350 92° East  Level FlightAware Approximate
01:57AM 51.9930 -12.0320 92° East 433 498 35,000  Level FlightAware
01:58AM 52.0457 -12.2120 92° East  Level FlightAware Approximate
01:58AM 51.9910 -11.9390 92° East 433 498 35,000  Level FlightAware
01:58AM 51.9890 -11.8200 92° East 432 497 35,000  Level FlightAware
01:59AM 51.9870 -11.6760 91° East 433 498 35,000  Level FlightAware
02:00AM 51.9840 -11.5480 92° East 432 497 35,000  Level FlightAware
02:00AM 51.9820 -11.4330 92° East 431 496 35,000  Level FlightAware
02:01AM 51.9800 -11.3190 92° East 431 496 35,000  Level FlightAware
02:01AM 51.9780 -11.2340 92° East 431 496 35,000  Level FlightAware
02:02AM 51.9750 -11.1000 92° East 431 496 35,000  Level FlightAware
02:03AM 51.9720 -10.9850 92° East 432 497 35,000  Level FlightAware
02:03AM 51.9690 -10.8720 92° East 432 497 35,000  Level FlightAware
02:04AM 51.9660 -10.7560 92° East 431 496 35,000  Level FlightAware
02:04AM 51.9640 -10.6550 92° East 430 495 35,000  Level FlightAware
02:05AM 51.9610 -10.5480 93° East 430 495 35,000  Level FlightAware
02:05AM 51.9570 -10.4260 93° East 430 495 35,000  Level FlightAware
02:06AM 51.9540 -10.2980 92° East 430 495 35,000  Level FlightAware
02:07AM 51.9510 -10.2030 93° East 430 495 35,000  Level FlightAware
02:07AM 51.9470 -10.0900 93° East 430 495 35,000  Level FlightAware
02:08AM 51.9430 -9.9620 93° East 431 496 35,000  Level FlightAware
02:08AM 51.9390 -9.8490 93° East 430 495 35,000  Level FlightAware
02:09AM 51.9360 -9.7510 93° East 431 496 35,000  Level FlightAware
02:10AM 51.9320 -9.6390 93° East 432 497 35,000  Level FlightAware
02:10AM 51.9270 -9.5090 94° East 430 495 35,000  Level FlightAware
02:11AM 51.9230 -9.3800 93° East 430 495 35,000  Level FlightAware
02:11AM 51.9180 -9.2480 93° East 431 496 35,000  Level FlightAware
02:12AM 51.9130 -9.1370 94° East 433 498 35,000  Level FlightAware
02:13AM 51.9080 -9.0080 94° East 434 499 35,000 -120 Level FlightAware
02:13AM 51.9022 -8.8853 94° East 492 566 34,900  Descending FlightAware UK
02:13AM 51.9020 -8.8770 94° East 434 499 35,000 600 Climbing FlightAware
02:14AM 51.9023 -8.8729 83° East 434 499 35,000 -120 Level FlightAware ADS-B
02:14AM 51.8942 -8.6917 83° East 490 564 34,900  Descending FlightAware UK
02:14AM 51.8940 -8.6690 83° East 432 497 35,000 120 Climbing FlightAware
02:15AM 51.8887 -8.5572 94° East 434 499 35,000  Level FlightAware ADS-B
02:16AM 51.8830 -8.4270 94° East 436 502 35,000  Level FlightAware
02:16AM 51.8768 -8.2991 94° East 439 505 35,000  Level FlightAware ADS-B
02:17AM 51.8716 -8.1896 94° East 439 505 35,000  Level FlightAware ADS-B
02:17AM 51.8669 -8.0922 94° East 440 506 35,000  Level FlightAware ADS-B
02:18AM 51.8603 -7.9593 95° East 442 509 35,000  Level FlightAware ADS-B
02:19AM 51.8538 -7.8299 95° East 444 511 35,000  Level FlightAware ADS-B
02:19AM 51.8489 -7.7344 95° East 444 511 35,000  Level FlightAware ADS-B
02:20AM 51.8419 -7.6015 95° East 445 512 35,000  Level FlightAware ADS-B
02:20AM 51.8364 -7.4993 95° East 446 513 35,000  Level FlightAware ADS-B
02:21AM 51.8294 -7.3696 95° East 448 516 35,000  Level FlightAware ADS-B
02:22AM 51.8237 -7.2686 95° East 448 516 35,000  Level FlightAware ADS-B
02:22AM 51.8180 -7.1664 95° East 447 514 35,000  Level FlightAware ADS-B
02:23AM 51.8137 -7.0907 95° East 449 517 35,000 -120 Level FlightAware ADS-B
02:23AM 51.8047 -6.9366 95° East 452 520 34,900 -360 Descending FlightAware ADS-B
02:24AM 51.7986 -6.8333 95° East 454 522 34,600 -540 Descending FlightAware ADS-B (EGBS)
02:24AM 51.7916 -6.7114 95° East 492 566 34,300 -480 Descending FlightAware UK
02:24AM 51.7900 -6.6900 95° East 454 522 34,300 -360 Level FlightAware
02:25AM 51.7833 -6.5803 96° East 456 525 34,100 -480 Descending FlightAware ADS-B (EGBS)
02:26AM 51.7795 -6.4822 94° East 456 525 33,800 -540 Descending FlightAware ADS-B (EGBS)
02:26AM 51.7788 -6.4616 93° East 456 525 33,600 -480 Descending FlightAware ADS-B (EGBS)
02:27AM 51.7709 -6.2446 93° East 460 529 33,300 -480 Descending FlightAware ADS-B (EGBS)
02:27AM 51.7666 -6.1412 94° East 460 529 33,100 -300 Descending FlightAware ADS-B (EGBS)
02:28AM 51.7616 -6.0290 94° East 458 527 33,000 -120 Descending FlightAware ADS-B (EGBS)
02:28AM 51.7571 -5.9300 94° East 453 521 33,000  Level FlightAware ADS-B (EGBS)
02:29AM 51.7516 -5.8052 94° East 455 524 33,000  Level FlightAware ADS-B (EGBS)
02:29AM 51.7467 -5.7006 94° East 454 522 33,000  Level FlightAware ADS-B (EGBS)
02:30AM 51.7416 -5.5923 94° East 454 522 33,000  Level FlightAware ADS-B (EGBS)
02:30AM 51.7365 -5.4849 94° East 454 522 33,000  Level FlightAware ADS-B (EGBS)
02:31AM 51.7352 -5.4583 95° East 454 522 33,000  Level FlightAware ADS-B (EGDX / DGX)
02:31AM 51.7304 -5.3580 94° East 453 521 33,000  Level FlightAware ADS-B (EGBS)
02:32AM 51.7253 -5.2547 95° East 453 521 33,000  Level FlightAware ADS-B (EGBS)
02:32AM 51.7200 -5.1501 95° East 453 521 33,000  Level FlightAware ADS-B (EGBS)
02:32AM 51.7322 -5.3964 275° West 454 522 33,000  Level FlightAware ADS-B (EGDX / DGX)
02:33AM 51.7133 -5.0197 94° East 452 520 33,000  Level FlightAware ADS-B (EGBS)
02:33AM 51.7080 -4.9177 95° East 453 521 33,000  Level FlightAware ADS-B (EGBS)
02:34AM 51.7026 -4.8154 95° East 451 519 33,000  Level FlightAware ADS-B (EGBS)
02:34AM 51.7029 -4.8218 275° West 450 518 33,000  Level FlightAware ADS-B (EGDX / DGX)
02:34AM 51.6943 -4.6642 95° East 451 519 33,000  Level FlightAware ADS-B
02:35AM 51.6922 -4.6258 95° East 451 519 33,000  Level FlightAware ADS-B
02:35AM 51.6901 -4.5883 95° East 451 519 33,000  Level FlightAware ADS-B (EGDX / DGX)
02:35AM 51.6843 -4.4852 95° East 451 519 33,000  Level FlightAware ADS-B (EGBS)
02:36AM 51.6818 -4.4418 95° East 449 517 33,000  Level FlightAware ADS-B (EGDX / DGX)
02:36AM 51.6731 -4.2873 95° East 492 566 33,000  Level FlightAware UK
02:36AM 51.6715 -4.2630 95° East 448 516 33,000  Level FlightAware ADS-B
02:37AM 51.6663 -4.1747 95° East 448 516 33,000  Level FlightAware ADS-B
02:37AM 51.6657 -4.1654 95° East 449 517 33,000  Level FlightAware ADS-B (EGDX / DGX)
02:38AM 51.6592 -4.0562 95° East 447 514 33,000  Level FlightAware ADS-B
02:38AM 51.6575 -4.0301 96° East 447 514 33,000 -300 Level FlightAware ADS-B (EGBS)
02:38AM 51.6535 -3.9890 99° East 448 516 32,900 -1,020 Descending FlightAware ADS-B (EGBS)
02:38AM 51.6508 -3.9665 101° East 449 517 32,700 -900 Descending FlightAware ADS-B (EGDX / DGX)
02:38AM 51.6445 -3.9190 102° East 447 514 32,600 -600 Descending FlightAware ADS-B (EGDM)
02:39AM 51.6326 -3.8303 102° East 443 510 32,300 -600 Descending FlightAware ADS-B (EGDX / DGX)
02:39AM 51.6186 -3.7276 102° East 436 502 32,000 -720 Descending FlightAware ADS-B
02:39AM 51.6143 -3.6954 102° East 437 503 31,800 -600 Descending FlightAware ADS-B (EGDX / DGX)
02:40AM 51.6101 -3.6639 102° East 431 496 31,800 -420 Level FlightAware ADS-B (EGUO)
02:40AM 51.6083 -3.6512 102° East 431 496 31,700 -480 Descending FlightAware ADS-B (EGDX / DGX)
02:40AM 51.6045 -3.6227 102° East 428 493 31,700 -480 Level FlightAware ADS-B (EGUO)
02:40AM 51.6020 -3.6038 102° East 431 496 31,600 -600 Descending FlightAware ADS-B (EGDX / DGX)
02:40AM 51.6000 -3.5893 102° East 426 490 31,600 -900 Level FlightAware ADS-B (EGUO)
02:40AM 51.5983 -3.5769 102° East 428 493 31,500 -720 Descending FlightAware ADS-B (EGDX / DGX)
02:40AM 51.5963 -3.5617 102° East 426 490 31,500 -480 Level FlightAware ADS-B (EGUO)
02:40AM 51.5928 -3.5360 102° East 425 489 31,400 -1,140 Descending FlightAware ADS-B (EGUO)
02:40AM 51.5966 -3.5642 282° West 427 491 31,200 -1,080 Descending FlightAware ADS-B (EGDX / DGX)
02:41AM 51.5839 -3.4716 102° East 426 490 31,000 -780 Descending FlightAware ADS-B (EGDM)
02:41AM 51.5757 -3.4110 102° East 424 488 30,800 -840 Descending FlightAware ADS-B (EGDX / DGX)
02:41AM 51.5757 -3.4110 102° East 422 486 30,500 -900 Descending FlightAware ADS-B (EGDX / DGX)
02:41AM 51.5687 -3.3592 102° East 421 484 30,400 -600 Descending FlightAware ADS-B (EGDX / DGX)
02:42AM 51.5607 -3.2988 102° East 421 484 30,300 -600 Descending FlightAware ADS-B (EGDM)
02:42AM 51.5559 -3.2625 102° East 419 482 30,200 -1,140 Descending FlightAware ADS-B
02:42AM 51.5549 -3.2558 103° East 419 482 30,100 -960 Descending FlightAware ADS-B (EGUO)
02:42AM 51.5507 -3.2247 102° East 419 482 30,000 -720 Descending FlightAware ADS-B (EGUO)
02:42AM 51.5473 -3.1995 102° East 419 482 29,900 -720 Descending FlightAware ADS-B
02:42AM 51.5432 -3.1688 102° East 418 481 29,800 -780 Descending FlightAware ADS-B
02:43AM 51.5334 -3.0820 100° East 417 480 29,400 -840 Descending FlightAware ADS-B (EGBS)
02:43AM 51.5305 -3.0506 98° East 415 478 29,200 -780 Descending FlightAware ADS-B
02:43AM 51.5265 -3.0074 98° East 416 479 29,100 -600 Descending FlightAware ADS-B
02:44AM 51.5177 -2.9148 99° East 413 475 28,800 -720 Descending FlightAware ADS-B (EGDM)
02:44AM 51.5131 -2.8690 99° East 413 475 28,600 -780 Descending FlightAware ADS-B
02:44AM 51.5079 -2.8178 99° East 412 474 28,400 -600 Descending FlightAware ADS-B (EGDM)
02:44AM 51.5038 -2.7782 99° East 411 473 28,300 -780 Descending FlightAware ADS-B
02:45AM 51.5017 -2.7571 99° East 409 471 28,000 -1,320 Descending FlightAware ADS-B (EGGP / LPL)
02:45AM 51.4937 -2.6819 100° East 408 470 27,600 -1,980 Descending FlightAware ADS-B
02:45AM 51.4877 -2.6251 100° East 401 461 26,900 -2,040 Descending FlightAware ADS-B (EGDX / DGX)
02:45AM 51.4842 -2.5917 100° East 399 459 26,600 -1,980 Descending FlightAware ADS-B
02:46AM 51.4771 -2.5242 100° East 396 456 25,800 -2,100 Descending FlightAware ADS-B (EGBS)
02:46AM 51.4738 -2.4934 100° East 394 453 25,400 -2,040 Descending FlightAware ADS-B
02:46AM 51.4675 -2.4345 100° East 392 451 24,600 -2,040 Descending FlightAware ADS-B (EGDX / DGX)
02:47AM 51.4636 -2.3986 100° East 391 450 24,300 -2,160 Descending FlightAware ADS-B
02:47AM 51.4565 -2.3321 100° East 388 447 23,500 -2,160 Descending FlightAware ADS-B (EGDM)
02:47AM 51.4541 -2.3090 100° East 387 445 23,200 -2,040 Descending FlightAware ADS-B
02:47AM 51.4476 -2.2488 100° East 383 441 22,500 -2,040 Descending FlightAware ADS-B (EGUO)
02:48AM 51.4442 -2.2171 100° East 381 438 22,100 -2,040 Descending FlightAware ADS-B
02:48AM 51.4379 -2.1589 100° East 378 435 21,400 -1,980 Descending FlightAware ADS-B (EGDM)
02:48AM 51.4351 -2.1337 100° East 377 434 21,100 -1,980 Descending FlightAware ADS-B
02:49AM 51.4285 -2.0734 100° East 373 429 20,400 -2,100 Descending FlightAware ADS-B (EGDM)
02:49AM 51.4253 -2.0445 100° East 372 428 20,000 -2,100 Descending FlightAware ADS-B
02:49AM 51.4200 -1.9962 100° East 369 425 19,300 -1,800 Descending FlightAware ADS-B
02:49AM 51.4155 -1.9556 100° East 368 423 19,000 -1,980 Descending FlightAware ADS-B
02:50AM 51.4089 -1.8967 100° East 365 420 18,200 -2,160 Descending FlightAware ADS-B
02:50AM 51.4062 -1.8719 100° East 364 419 17,900 -1,800 Descending FlightAware ADS-B
02:50AM 51.4072 -1.8811 280° West 361 415 17,300 -1,980 Descending FlightAware ADS-B (EGLC / LCY)
02:50AM 51.3972 -1.7915 100° East 360 414 16,900 -2,220 Descending FlightAware ADS-B
02:51AM 51.3915 -1.7402 100° East 355 409 16,200 -2,040 Descending FlightAware ADS-B
02:51AM 51.3885 -1.7129 100° East 354 407 15,900 -1,980 Descending FlightAware ADS-B
02:51AM 51.3816 -1.6519 100° East 351 404 15,100 -1,800 Descending FlightAware ADS-B (EGDM)
02:51AM 51.3797 -1.6357 101° East 351 404 15,000 -1,680 Descending FlightAware ADS-B
02:51AM 51.3781 -1.6217 101° East 349 402 14,800 -1,440 Descending FlightAware ADS-B (EGDM)
02:52AM 51.3708 -1.5594 101° East 343 395 14,300 -1,200 Descending FlightAware ADS-B
02:52AM 51.3695 -1.5477 100° East 336 387 14,200 -780 Descending FlightAware ADS-B (EGDM)
02:52AM 51.3608 -1.4873 103° East 321 369 13,900 -600 Descending FlightAware ADS-B
02:52AM 51.3591 -1.4769 105° East 317 365 13,900 -780 Level FlightAware ADS-B (EGDM)
02:53AM 51.3501 -1.4198 104° East 299 344 13,500 -1,020 Descending FlightAware ADS-B
02:53AM 51.3487 -1.4109 104° East 296 341 13,400 -1,620 Descending FlightAware ADS-B (EGDM)
02:53AM 51.3446 -1.3838 104° East 287 330 13,000 -960 Descending FlightAware ADS-B (EGWE)
02:53AM 51.3407 -1.3576 103° East 282 325 13,000 -720 Level FlightAware ADS-B
02:54AM 51.3349 -1.3178 103° East 268 308 12,600 -960 Descending FlightAware ADS-B (EGDM)
02:54AM 51.3334 -1.3080 103° East 267 307 12,600 -600 Level FlightAware ADS-B
02:54AM 51.3255 -1.2543 103° East 252 290 12,300 -600 Descending FlightAware ADS-B (EGDM)
02:54AM 51.3251 -1.2514 103° East 251 289 12,300 -600 Level FlightAware ADS-B
02:54AM 51.3264 -1.2603 283° West 256 295 12,200 -720 Descending FlightAware ADS-B (EGWE)
02:55AM 51.3203 -1.2187 103° East 240 276 12,100 -600 Descending FlightAware ADS-B
02:55AM 51.3177 -1.2017 104° East 240 276 12,000 -600 Descending FlightAware ADS-B
02:55AM 51.3149 -1.1811 102° East 237 273 11,900 -480 Descending FlightAware ADS-B
02:55AM 51.3148 -1.1802 104° East 236 272 11,900 -780 Level FlightAware ADS-B
02:55AM 51.3137 -1.1672 97° East 234 269 11,800 -780 Descending FlightAware ADS-B
02:55AM 51.3136 -1.1663 100° East 235 270 11,800 -960 Level FlightAware ADS-B
02:55AM 51.3130 -1.1447 92° East 231 266 11,600 -1,200 Descending FlightAware ADS-B
02:55AM 51.3129 -1.1308 91° East 228 262 11,400 -960 Descending FlightAware ADS-B
02:56AM 51.3126 -1.1015 91° East 227 261 11,200 -720 Descending FlightAware ADS-B
02:56AM 51.3126 -1.1104 270° West 226 260 11,100 -480 Descending FlightAware ADS-B (EGLC / LCY)
02:56AM 51.3123 -1.0594 91° East 227 261 11,000 -240 Descending FlightAware ADS-B
02:56AM 51.3120 -1.0342 91° East 230 265 11,000  Level FlightAware ADS-B (EGDM)
02:57AM 51.3117 -1.0081 91° East 228 262 11,000  Level FlightAware ADS-B
02:57AM 51.3114 -0.9709 91° East 229 264 11,000  Level FlightAware ADS-B (EGDM)
02:57AM 51.3112 -0.9570 91° East 229 264 11,000  Level FlightAware ADS-B
02:58AM 51.3108 -0.9205 91° East 231 266 11,000  Level FlightAware ADS-B (EGDM)
02:58AM 51.3106 -0.9055 91° East 230 265 11,000  Level FlightAware ADS-B
02:58AM 51.3103 -0.8698 91° East 226 260 11,000  Level FlightAware ADS-B
02:58AM 51.3102 -0.8633 91° East 225 259 11,000  Level FlightAware ADS-B (EGLC / LCY)
02:59AM 51.3097 -0.8195 91° East 227 261 11,000  Level FlightAware ADS-B
02:59AM 51.3095 -0.7986 91° East 227 261 11,000  Level FlightAware ADS-B
02:59AM 51.3091 -0.7684 91° East 227 261 11,000  Level FlightAware ADS-B
02:59AM 51.3089 -0.7470 91° East 227 261 11,000  Level FlightAware ADS-B
03:00AM 51.3085 -0.7179 91° East 228 262 11,000  Level FlightAware ADS-B
03:00AM 51.3081 -0.6754 91° East 230 265 11,000  Level FlightAware ADS-B
03:00AM 51.3074 -0.6235 91° East 234 269 11,000  Level FlightAware ADS-B
03:01AM 51.3067 -0.5707 91° East 234 269 11,000  Level FlightAware ADS-B
03:01AM 51.3070 -0.5933 271° West 234 269 11,000 -600 Level FlightAware ADS-B
03:01AM 51.3061 -0.5168 91° East 234 269 10,700 -720 Descending FlightAware ADS-B
03:02AM 51.3060 -0.5135 92° East 233 268 10,600 -600 Descending FlightAware ADS-B
03:02AM 51.3056 -0.4818 91° East 231 266 10,500 -720 Descending FlightAware ADS-B
03:02AM 51.3057 -0.4884 271° West 231 266 10,400 -780 Descending FlightAware ADS-B (EGLC / LCY)
03:02AM 51.3054 -0.4562 91° East 230 265 10,300 -780 Descending FlightAware ADS-B
03:02AM 51.3071 -0.4253 85° East 227 261 10,000 -1,140 Descending FlightAware ADS-B
03:02AM 51.3074 -0.4208 84° East 226 260 9,900 -1,020 Descending FlightAware ADS-B
03:02AM 51.3078 -0.4159 83° East 226 260 9,900 -720 Level FlightAware ADS-B
03:03AM 51.3101 -0.3898 82° East 227 261 9,700 -840 Descending FlightAware ADS-B
03:03AM 51.3109 -0.3799 83° East 227 261 9,600 -780 Descending FlightAware ADS-B
03:03AM 51.3122 -0.3620 83° East 225 259 9,500 -720 Descending FlightAware ADS-B
03:03AM 51.3126 -0.3564 83° East 225 259 9,400 -720 Descending FlightAware ADS-B
03:03AM 51.3143 -0.3352 83° East 225 259 9,300 -960 Descending FlightAware ADS-B
03:03AM 51.3147 -0.3176 88° East 225 259 9,100 -1,140 Descending FlightAware ADS-B
03:03AM 51.3147 -0.3168 93° East 226 260 9,100  Level FlightAware ADS-B
03:04AM 51.3123 -0.3035 106° East 231 266 9,100 -540 Level FlightAware ADS-B
03:04AM 51.3107 -0.2973 113° Southeast 232 267 9,000 -480 Descending FlightAware ADS-B (EGWE)
03:04AM 51.3056 -0.2827 119° Southeast 240 276 9,000  Level FlightAware ADS-B (EGWE)
03:04AM 51.3014 -0.2738 127° Southeast 232 267 9,000  Level FlightAware ADS-B
03:04AM 51.2949 -0.2634 135° Southeast 244 281 9,000  Level FlightAware ADS-B
03:04AM 51.2961 -0.2652 318° Northwest 248 285 9,000  Level FlightAware ADS-B
03:04AM 51.2911 -0.2589 142° Southeast 248 285 9,000  Level FlightAware ADS-B
03:04AM 51.2870 -0.2550 149° Southeast 255 293 9,000  Level FlightAware ADS-B
03:04AM 51.2827 -0.2516 154° Southeast 260 299 9,000  Level FlightAware ADS-B
03:04AM 51.2738 -0.2473 163° South 269 310 9,000  Level FlightAware ADS-B
03:04AM 51.2691 -0.2461 171° South 272 313 9,000  Level FlightAware ADS-B
03:05AM 51.2631 -0.2458 178° South 276 318 9,000  Level FlightAware ADS-B
03:05AM 51.2636 -0.2457 North 284 327 9,000  Level FlightAware ADS-B
03:05AM 51.2543 -0.2477 188° South 283 326 9,000  Level FlightAware ADS-B
03:05AM 51.2481 -0.2506 196° South 288 331 9,000  Level FlightAware ADS-B
03:05AM 51.2442 -0.2534 204° Southwest 291 335 9,000  Level FlightAware ADS-B
03:05AM 51.2386 -0.2585 210° Southwest 293 337 9,000  Level FlightAware ADS-B
03:05AM 51.2322 -0.2666 219° Southwest 295 339 9,000  Level FlightAware ADS-B
03:05AM 51.2277 -0.2746 228° Southwest 296 341 9,000  Level FlightAware ADS-B
03:05AM 51.2300 -0.2704 49° Northeast 298 343 9,000  Level FlightAware ADS-B
03:05AM 51.2219 -0.2899 237° Southwest 296 341 9,000  Level FlightAware ADS-B
03:05AM 51.2200 -0.2979 249° West 296 341 9,000  Level FlightAware ADS-B
03:05AM 51.2204 -0.2960 73° East 296 341 9,000  Level FlightAware ADS-B
03:05AM 51.2186 -0.3066 255° West 295 339 9,000  Level FlightAware ADS-B
03:05AM 51.2624 -0.2459 41° Northeast 296 341 9,000  Level FlightAware ADS-B
03:05AM 51.2180 -0.3133 224° Southwest 294 338 9,000  Level FlightAware ADS-B
03:05AM 51.2178 -0.3221 268° West 291 335 9,000  Level FlightAware ADS-B
03:05AM 51.2178 -0.3240 272° West 291 335 9,000  Level FlightAware ADS-B
03:06AM 51.2186 -0.3353 276° West 289 333 9,000  Level FlightAware ADS-B
03:06AM 51.2197 -0.3423 284° West 289 333 9,000  Level FlightAware ADS-B
03:06AM 51.2217 -0.3510 290° West 286 329 9,000  Level FlightAware ADS-B
03:06AM 51.2265 -0.3645 300° West 282 325 9,000  Level FlightAware ADS-B
03:06AM 51.2296 -0.3707 309° West 278 320 9,000  Level FlightAware ADS-B
03:06AM 51.2331 -0.3763 315° West 273 314 9,000  Level FlightAware ADS-B
03:06AM 51.2401 -0.3847 323° Northwest 267 307 9,000  Level FlightAware ADS-B
03:06AM 51.2436 -0.3879 330° Northwest 263 303 9,000  Level FlightAware ADS-B
03:06AM 51.2551 -0.3981 331° Northwest 258 297 9,000  Level FlightAware ADS-B
03:06AM 51.2461 -0.3900 151° Southeast 260 299 9,000  Level FlightAware ADS-B (EGWE)
03:07AM 51.2710 -0.4151 328° Northwest 265 305 9,000  Level FlightAware ADS-B
03:07AM 51.2852 -0.4296 327° Northwest 262 302 9,000  Level FlightAware ADS-B
03:07AM 51.2929 -0.4370 329° Northwest 261 300 9,000  Level FlightAware ADS-B (EGHH / BOH)
03:07AM 51.3014 -0.4453 329° Northwest 259 298 9,000  Level FlightAware ADS-B
03:07AM 51.3089 -0.4518 331° Northwest 259 298 9,000  Level FlightAware ADS-B
03:07AM 51.3162 -0.4556 342° North 254 292 9,000  Level FlightAware ADS-B
03:07AM 51.3254 -0.4567 356° North 242 278 9,000  Level FlightAware ADS-B
03:07AM 51.3265 -0.4566 North 242 278 9,000  Level FlightAware ADS-B
03:07AM 51.3293 -0.4562 North 239 275 9,000  Level FlightAware ADS-B
03:08AM 51.3334 -0.4554 North 237 273 9,000  Level FlightAware ADS-B
03:08AM 51.3366 -0.4544 11° North 235 270 9,000  Level FlightAware ADS-B
03:08AM 51.3398 -0.4530 15° North 234 269 9,000  Level FlightAware ADS-B
03:08AM 51.3436 -0.4509 19° North 232 267 9,000  Level FlightAware ADS-B
03:08AM 51.3470 -0.4485 24° Northeast 230 265 9,000  Level FlightAware ADS-B
03:08AM 51.3451 -0.4499 205° Southwest 230 265 9,000  Level FlightAware ADS-B
03:08AM 51.3524 -0.4434 29° Northeast 226 260 9,000  Level FlightAware ADS-B
03:08AM 51.3514 -0.4444 213° Southwest 226 260 9,000  Level FlightAware ADS-B (EGLC / LCY)
03:08AM 51.3558 -0.4394 36° Northeast 225 259 9,000  Level FlightAware ADS-B
03:08AM 51.3592 -0.4346 42° Northeast 222 255 9,000  Level FlightAware ADS-B
03:08AM 51.3595 -0.4340 52° Northeast 226 260 9,000  Level FlightAware ADS-B (EGLC / LCY)
03:08AM 51.3631 -0.4273 49° Northeast 221 254 9,000  Level FlightAware ADS-B
03:08AM 51.3658 -0.4211 55° Northeast 220 253 9,000  Level FlightAware ADS-B
03:08AM 51.3675 -0.4163 60° Northeast 220 253 9,000  Level FlightAware ADS-B
03:08AM 51.3697 -0.4084 66° East 220 253 9,000  Level FlightAware ADS-B
03:08AM 51.3707 -0.4029 74° East 221 254 9,000  Level FlightAware ADS-B
03:08AM 51.3716 -0.3975 75° East 222 255 9,000  Level FlightAware ADS-B
03:09AM 51.3722 -0.3896 83° East 223 257 9,000  Level FlightAware ADS-B
03:09AM 51.3723 -0.3824 89° East 225 259 9,000  Level FlightAware ADS-B
03:09AM 51.3722 -0.3793 92° East 226 260 9,000  Level FlightAware ADS-B
03:09AM 51.3717 -0.3729 97° East 228 262 9,000  Level FlightAware ADS-B
03:09AM 51.3706 -0.3651 103° East 231 266 9,000  Level FlightAware ADS-B
03:09AM 51.3695 -0.3594 107° East 233 268 9,000  Level FlightAware ADS-B
03:09AM 51.3682 -0.3547 114° Southeast 234 269 9,000  Level FlightAware ADS-B
03:09AM 51.3665 -0.3494 117° Southeast 237 273 9,000  Level FlightAware ADS-B
03:09AM 51.3686 -0.3561 297° West 237 273 9,000  Level FlightAware ADS-B
03:09AM 51.3645 -0.3441 119° Southeast 241 277 9,000  Level FlightAware ADS-B (EGLC / LCY)
03:09AM 51.3631 -0.3410 126° Southeast 242 278 9,000  Level FlightAware ADS-B
03:09AM 51.3592 -0.3340 132° Southeast 246 283 9,000  Level FlightAware ADS-B
03:09AM 51.3635 -0.4265 274° West 242 278 9,000  Level FlightAware ADS-B (EGWE)
03:09AM 51.3534 -0.3262 99° East 252 290 9,000  Level FlightAware ADS-B
03:09AM 51.3514 -0.3239 145° Southeast 256 295 9,000  Level FlightAware ADS-B
03:09AM 51.3479 -0.3205 149° Southeast 256 295 9,000  Level FlightAware ADS-B
03:09AM 51.3388 -0.3116 149° Southeast 252 290 9,000  Level FlightAware ADS-B
03:10AM 51.3322 -0.3040 144° Southeast 250 288 9,000  Level FlightAware ADS-B
03:10AM 51.3309 -0.3024 142° Southeast 252 290 9,000  Level FlightAware ADS-B (EGLC / LCY)
03:10AM 51.3209 -0.2911 145° Southeast 253 291 9,000  Level FlightAware ADS-B
03:10AM 51.2983 -0.2683 148° Southeast 256 295 9,000  Level FlightAware ADS-B
03:10AM 51.2902 -0.2608 150° Southeast 258 297 9,000  Level FlightAware ADS-B
03:10AM 51.2825 -0.2552 156° South 266 306 9,000  Level FlightAware ADS-B
03:10AM 51.2777 -0.2534 167° South 274 315 9,000  Level FlightAware ADS-B
03:11AM 51.2699 -0.2522 175° South 274 315 9,000  Level FlightAware ADS-B
03:11AM 51.2636 -0.2527 183° South 284 327 9,000  Level FlightAware ADS-B
03:11AM 51.2555 -0.2549 190° South 287 330 9,000  Level FlightAware ADS-B
03:11AM 51.2470 -0.2597 199° South 291 335 9,000  Level FlightAware ADS-B
03:11AM 51.2400 -0.2660 210° Southwest 294 338 9,000 -900 Level FlightAware ADS-B
03:11AM 51.2389 -0.2672 214° Southwest 295 339 8,900 -1,020 Descending FlightAware ADS-B
03:11AM 51.2339 -0.2737 219° Southwest 296 341 8,900  Level FlightAware ADS-B
03:11AM 51.2310 -0.2788 228° Southwest 296 341 8,900 -1,500 Level FlightAware ADS-B
03:11AM 51.2324 -0.2763 48° Northeast 296 341 8,800 -1,200 Descending FlightAware ADS-B
03:11AM 51.2962 -0.2663 North 296 341 8,800  Level FlightAware ADS-B (EGWE)
03:11AM 51.2255 -0.2918 193° South 296 341 8,800 -1,020 Level FlightAware ADS-B
03:11AM 51.2234 -0.2994 246° West 294 338 8,700 -1,020 Descending FlightAware ADS-B
03:11AM 51.2705 -0.2521 32° Northeast 266 306 8,700 -1,020 Level FlightAware ADS-B
03:11AM 51.2211 -0.3117 217° Southwest 293 337 8,600 -780 Descending FlightAware ADS-B
03:11AM 51.2204 -0.3211 263° West 291 335 8,600  Level FlightAware ADS-B
03:11AM 51.2204 -0.3221 266° West 291 335 8,600 -1,020 Level FlightAware ADS-B
03:12AM 51.2206 -0.3328 272° West 289 333 8,500 -1,140 Descending FlightAware ADS-B
03:12AM 51.2222 -0.3456 281° West 285 328 8,400 -600 Descending FlightAware ADS-B
03:12AM 51.2243 -0.3547 290° West 282 325 8,400 -720 Level FlightAware ADS-B
03:12AM 51.2233 -0.3508 113° Southeast 278 320 8,300 -1,200 Descending FlightAware ADS-B
03:12AM 51.2280 -0.3649 298° West 278 320 8,300  Level FlightAware ADS-B
03:12AM 51.2304 -0.3703 306° West 276 318 8,300 -900 Level FlightAware ADS-B
03:12AM 51.2328 -0.3746 312° West 273 314 8,200 -1,200 Descending FlightAware ADS-B
03:12AM 51.2346 -0.3773 316° Northwest 271 312 8,200 -1,200 Level FlightAware ADS-B
03:12AM 51.2376 -0.3814 320° Northwest 270 311 8,100 -1,020 Descending FlightAware ADS-B
03:12AM 51.2412 -0.3855 325° Northwest 268 308 8,100 -780 Level FlightAware ADS-B
03:12AM 51.2457 -0.3896 330° Northwest 262 302 8,000 -600 Descending FlightAware ADS-B
03:12AM 51.2523 -0.3953 332° Northwest 256 295 8,000 -720 Level FlightAware ADS-B
03:12AM 51.2548 -0.3976 330° Northwest 256 295 7,900 -1,020 Descending FlightAware ADS-B
03:12AM 51.2583 -0.4011 328° Northwest 257 296 7,900 -600 Level FlightAware ADS-B
03:12AM 51.2654 -0.4085 327° Northwest 259 298 7,800 -840 Descending FlightAware ADS-B
03:13AM 51.2734 -0.4167 327° Northwest 257 296 7,700 -600 Descending FlightAware ADS-B
03:13AM 51.2854 -0.4287 328° Northwest 255 293 7,600 -780 Descending FlightAware ADS-B
03:13AM 51.2890 -0.4322 329° Northwest 255 293 7,500 -1,020 Descending FlightAware ADS-B
03:13AM 51.2978 -0.4408 329° Northwest 253 291 7,400 -900 Descending FlightAware ADS-B
03:13AM 51.3034 -0.4466 327° Northwest 254 292 7,300 -900 Descending FlightAware ADS-B
03:13AM 51.3044 -0.4477 325° Northwest 254 292 7,300  Level FlightAware ADS-B
03:13AM 51.3062 -0.4501 321° Northwest 254 292 7,300  Level FlightAware ADS-B
03:13AM 51.3090 -0.4540 319° Northwest 257 296 7,300 -900 Level FlightAware ADS-B
03:13AM 51.3123 -0.4597 313° West 261 300 7,200 -1,020 Descending FlightAware ADS-B
03:13AM 51.3137 -0.4627 306° West 263 303 7,200  Level FlightAware ADS-B
03:13AM 51.3150 -0.4659 304° West 266 306 7,200 -900 Level FlightAware ADS-B
03:13AM 51.3179 -0.4750 297° West 271 312 7,100 -780 Descending FlightAware ADS-B
03:13AM 51.3193 -0.4807 291° West 276 318 7,100 -720 Level FlightAware ADS-B
03:14AM 51.3214 -0.4919 287° West 278 320 7,000 -900 Descending FlightAware ADS-B
03:14AM 51.3218 -0.4950 283° West 278 320 7,000  Level FlightAware ADS-B
03:14AM 51.3261 -0.5266 282° West 282 325 7,000  Level FlightAware ADS-B
03:14AM 51.3301 -0.5570 282° West 278 320 7,000  Level FlightAware ADS-B
03:14AM 51.3315 -0.5671 282° West 278 320 7,000  Level FlightAware ADS-B
03:14AM 51.3342 -0.5873 282° West 278 320 7,000  Level FlightAware ADS-B
03:15AM 51.3382 -0.6180 282° West 278 320 7,000  Level FlightAware ADS-B
03:15AM 51.3390 -0.6241 282° West 279 321 7,000 -840 Level FlightAware ADS-B
03:15AM 51.3422 -0.6482 282° West 279 321 6,800 -960 Descending FlightAware ADS-B
03:15AM 51.3438 -0.6604 282° West 274 315 6,700 -780 Descending FlightAware ADS-B
03:15AM 51.3461 -0.6789 281° West 274 315 6,600 -600 Descending FlightAware ADS-B
03:15AM 51.3492 -0.7036 281° West 271 312 6,500 -660 Descending FlightAware ADS-B
03:16AM 51.3529 -0.7346 281° West 270 311 6,300 -720 Descending FlightAware ADS-B
03:16AM 51.3552 -0.7536 281° West 270 311 6,200 -420 Descending FlightAware ADS-B (EGLC / LCY)
03:16AM 51.3564 -0.7643 280° West 270 311 6,200 -600 Level FlightAware ADS-B
03:16AM 51.3601 -0.7949 281° West 270 311 6,000 -660 Descending FlightAware ADS-B
03:16AM 51.3629 -0.8182 281° West 268 308 5,900 -300 Descending FlightAware ADS-B
03:16AM 51.3648 -0.8332 281° West 265 305 5,900 -480 Level FlightAware ADS-B
03:17AM 51.3662 -0.8427 283° West 259 298 5,800 -600 Descending FlightAware ADS-B
03:17AM 51.3714 -0.8698 287° West 243 280 5,700 -420 Descending FlightAware ADS-B
03:17AM 51.3768 -0.8961 288° West 234 269 5,600 -300 Descending FlightAware ADS-B
03:17AM 51.3783 -0.9024 291° West 231 266 5,600  Level FlightAware ADS-B
03:17AM 51.3797 -0.9071 295° West 229 264 5,600 -900 Level FlightAware ADS-B
03:17AM 51.3816 -0.9122 301° West 225 259 5,500 -780 Descending FlightAware ADS-B
03:17AM 51.3842 -0.9171 310° West 221 254 5,500  Level FlightAware ADS-B
03:17AM 51.3867 -0.9208 317° Northwest 216 249 5,500 -900 Level FlightAware ADS-B
03:17AM 51.3892 -0.9237 325° Northwest 212 244 5,400 -780 Descending FlightAware ADS-B
03:17AM 51.3926 -0.9264 333° Northwest 206 237 5,400  Level FlightAware ADS-B
03:18AM 51.3955 -0.9279 343° North 199 229 5,400 -900 Level FlightAware ADS-B
03:18AM 51.3985 -0.9292 345° North 195 224 5,300 -780 Descending FlightAware ADS-B
03:18AM 51.4022 -0.9302 350° North 191 220 5,300  Level FlightAware ADS-B
03:18AM 51.4074 -0.9314 352° North 189 217 5,300 -420 Level FlightAware ADS-B
03:18AM 51.4163 -0.9331 353° North 190 219 5,200 -480 Descending FlightAware ADS-B
03:18AM 51.4194 -0.9332 358° North 189 217 5,200 -780 Level FlightAware ADS-B
03:18AM 51.4232 -0.9326 North 187 215 5,100 -900 Descending FlightAware ADS-B
03:18AM 51.4257 -0.9315 16° North 182 209 5,100 -780 Level FlightAware ADS-B
03:18AM 51.4293 -0.9286 27° Northeast 175 201 5,000 -420 Descending FlightAware ADS-B
03:18AM 51.4345 -0.9205 44° Northeast 169 194 5,000 -420 Level FlightAware ADS-B
03:18AM 51.4216 -0.9330 211° Southwest 179 206 4,900 -780 Descending FlightAware ADS-B
03:19AM 51.4382 -0.9125 38° Northeast 167 192 4,900  Level FlightAware ADS-B
03:19AM 51.4411 -0.9058 56° Northeast 167 192 4,900 -420 Level FlightAware ADS-B
03:19AM 51.4448 -0.8968 56° Northeast 167 192 4,800 -660 Descending FlightAware ADS-B
03:19AM 51.4180 -0.9332 220° Southwest 168 193 4,700 -420 Descending FlightAware ADS-B (EGLC / LCY)
03:19AM 51.4516 -0.8808 44° Northeast 168 193 4,700 -600 Level FlightAware ADS-B
03:19AM 51.4539 -0.8755 56° Northeast 168 193 4,600 -840 Descending FlightAware ADS-B (EGLC / LCY)
03:19AM 51.4582 -0.8655 55° Northeast 168 193 4,500 -720 Descending FlightAware ADS-B
03:19AM 51.4612 -0.8587 54° Northeast 169 194 4,400 -420 Descending FlightAware ADS-B
03:20AM 51.4652 -0.8497 55° Northeast 170 196 4,400 -300 Level FlightAware ADS-B
03:20AM 51.4709 -0.8366 55° Northeast 171 197 4,300 -900 Descending FlightAware ADS-B
03:20AM 51.4709 -0.8366 176° South 170 196 4,200 -1,200 Descending FlightAware ADS-B
03:20AM 51.4726 -0.8312 63° Northeast 169 194 4,200  Level FlightAware ADS-B
03:20AM 51.4737 -0.8269 68° East 168 193 4,200 -780 Level FlightAware ADS-B
03:20AM 51.4746 -0.8218 74° East 167 192 4,100 -720 Descending FlightAware ADS-B
03:20AM 51.4752 -0.8166 80° East 166 191 4,100 -600 Level FlightAware ADS-B
03:20AM 51.4758 -0.8080 84° East 163 188 4,000 -780 Descending FlightAware ADS-B
03:20AM 51.4758 -0.8067 88° East 164 189 4,000  Level FlightAware ADS-B
03:20AM 51.4759 -0.8032 88° East 163 188 4,000 -1,140 Level FlightAware ADS-B
03:20AM 51.4759 -0.7938 90° East 162 186 3,800 -1,200 Descending FlightAware ADS-B
03:20AM 51.4759 -0.7857 90° East 157 181 3,700 -840 Descending FlightAware ADS-B
03:21AM 51.4759 -0.7761 90° East 152 175 3,600 -720 Descending FlightAware ADS-B
03:21AM 51.4760 -0.7664 89° East 148 170 3,500 -600 Descending FlightAware ADS-B
03:21AM 51.4761 -0.7536 89° East 142 163 3,400 -720 Descending FlightAware ADS-B
03:21AM 51.4762 -0.7403 89° East 139 160 3,200 -900 Descending FlightAware ADS-B
03:21AM 51.4763 -0.7316 89° East 140 161 3,100 -900 Descending FlightAware ADS-B
03:21AM 51.4763 -0.7197 90° East 141 162 2,900 -900 Descending FlightAware ADS-B
03:22AM 51.4764 -0.7171 88° East 141 162 2,900 -540 Level FlightAware ADS-B
03:22AM 51.4764 -0.7063 90° East 143 165 2,800 -720 Descending FlightAware ADS-B
03:22AM 51.4765 -0.6898 89° East 144 166 2,600 -1,080 Descending FlightAware ADS-B
03:22AM 51.4766 -0.6820 89° East 143 165 2,400 -1,200 Descending FlightAware ADS-B
03:22AM 51.4766 -0.6737 90° East 143 165 2,300 -600 Descending FlightAware ADS-B
03:22AM 51.4767 -0.6598 89° East 142 163 2,200 -720 Descending FlightAware ADS-B
03:23AM 51.4767 -0.6561 90° East 142 163 2,000 -780 Descending FlightAware ADS-B
03:23AM 51.4768 -0.6435 89° East 142 163 2,000 -600 Level FlightAware ADS-B
03:23AM 51.4769 -0.6268 89° East 142 163 1,800 -960 Descending FlightAware ADS-B
03:23AM 51.4770 -0.6085 89° East 142 163 1,500 -1,020 Descending FlightAware ADS-B
03:23AM 51.4770 -0.6014 90° East 140 161 1,400 -600 Descending FlightAware ADS-B
03:24AM 51.4771 -0.5885 89° East 136 157 1,300 -780 Descending FlightAware ADS-B
03:24AM 51.4771 -0.5703 90° East 136 157 1,000 -960 Descending FlightAware ADS-B
03:24AM 51.4773 -0.5545 89° East 139 160 800 -720 Descending FlightAware ADS-B
03:25AM 51.4770 -0.5090 91° East 143 165 300 -720 Descending FlightAware
03:25AM 51.4770 -0.4890 90° East 144 166 -900 Descending FlightAware
03:25AM 51.4780 -0.4700 85° East 125 144  Level FlightAware